<?xml version="1.0" encoding="UTF-8" standalone="no" ?>
<gpx xmlns="http://www.topografix.com/GPX/1/1" xmlns:xsi="http://www.w3.org/2001/XMLSchema-instance" xsi:schemaLocation="http://www.topografix.com/GPX/1/1 http://www.topografix.com/GPX/1/1/gpx.xsd" version="1.1" creator="VisuGPX - https://www.visugpx.com">
  <metadata>
    <name>Saint Fortunat sur Eyrieux</name>
  </metadata>
  <trk>
    <name><![CDATA[track]]></name>
    <trkseg>
      <trkpt lat="44.83048" lon="4.67854">
        <ele>160</ele>
        <time>2019-11-12T07:49:44Z</time>
      </trkpt>
      <trkpt lat="44.83046" lon="4.67855">
        <ele>160</ele>
        <time>2019-11-12T07:50:19Z</time>
      </trkpt>
      <trkpt lat="44.83044" lon="4.6785">
        <ele>159</ele>
        <time>2019-11-12T07:50:45Z</time>
      </trkpt>
      <trkpt lat="44.83042" lon="4.6785">
        <ele>159</ele>
        <time>2019-11-12T07:51:00Z</time>
      </trkpt>
      <trkpt lat="44.83042" lon="4.6785">
        <ele>158</ele>
        <time>2019-11-12T07:51:15Z</time>
      </trkpt>
      <trkpt lat="44.8304" lon="4.6785">
        <ele>158</ele>
        <time>2019-11-12T07:51:31Z</time>
      </trkpt>
      <trkpt lat="44.83042" lon="4.6785">
        <ele>158</ele>
        <time>2019-11-12T07:51:39Z</time>
      </trkpt>
      <trkpt lat="44.8304" lon="4.67853">
        <ele>158</ele>
        <time>2019-11-12T07:51:43Z</time>
      </trkpt>
      <trkpt lat="44.83028" lon="4.67857">
        <ele>157</ele>
        <time>2019-11-12T07:51:55Z</time>
      </trkpt>
      <trkpt lat="44.83009" lon="4.67853">
        <ele>153</ele>
        <time>2019-11-12T07:52:13Z</time>
      </trkpt>
      <trkpt lat="44.83" lon="4.67855">
        <ele>151</ele>
        <time>2019-11-12T07:52:22Z</time>
      </trkpt>
      <trkpt lat="44.82998" lon="4.67859">
        <ele>151</ele>
        <time>2019-11-12T07:52:26Z</time>
      </trkpt>
      <trkpt lat="44.83001" lon="4.67882">
        <ele>152</ele>
        <time>2019-11-12T07:52:40Z</time>
      </trkpt>
      <trkpt lat="44.83" lon="4.67904">
        <ele>152</ele>
        <time>2019-11-12T07:52:53Z</time>
      </trkpt>
      <trkpt lat="44.82998" lon="4.67933">
        <ele>153</ele>
        <time>2019-11-12T07:53:11Z</time>
      </trkpt>
      <trkpt lat="44.82998" lon="4.67966">
        <ele>154</ele>
        <time>2019-11-12T07:53:30Z</time>
      </trkpt>
      <trkpt lat="44.82997" lon="4.67996">
        <ele>155</ele>
        <time>2019-11-12T07:53:47Z</time>
      </trkpt>
      <trkpt lat="44.82996" lon="4.68009">
        <ele>155</ele>
        <time>2019-11-12T07:53:54Z</time>
      </trkpt>
      <trkpt lat="44.82995" lon="4.68042">
        <ele>155</ele>
        <time>2019-11-12T07:54:13Z</time>
      </trkpt>
      <trkpt lat="44.82994" lon="4.68048">
        <ele>155</ele>
        <time>2019-11-12T07:54:17Z</time>
      </trkpt>
      <trkpt lat="44.82995" lon="4.68052">
        <ele>155</ele>
        <time>2019-11-12T07:54:19Z</time>
      </trkpt>
      <trkpt lat="44.82995" lon="4.6808">
        <ele>154</ele>
        <time>2019-11-12T07:54:34Z</time>
      </trkpt>
      <trkpt lat="44.82993" lon="4.68106">
        <ele>152</ele>
        <time>2019-11-12T07:54:49Z</time>
      </trkpt>
      <trkpt lat="44.82991" lon="4.68131">
        <ele>151</ele>
        <time>2019-11-12T07:55:04Z</time>
      </trkpt>
      <trkpt lat="44.82992" lon="4.68149">
        <ele>151</ele>
        <time>2019-11-12T07:55:22Z</time>
      </trkpt>
      <trkpt lat="44.82993" lon="4.68149">
        <ele>151</ele>
        <time>2019-11-12T07:55:23Z</time>
      </trkpt>
      <trkpt lat="44.82999" lon="4.68153">
        <ele>152</ele>
        <time>2019-11-12T07:55:28Z</time>
      </trkpt>
      <trkpt lat="44.83004" lon="4.68154">
        <ele>154</ele>
        <time>2019-11-12T07:55:32Z</time>
      </trkpt>
      <trkpt lat="44.83017" lon="4.68161">
        <ele>157</ele>
        <time>2019-11-12T07:55:46Z</time>
      </trkpt>
      <trkpt lat="44.83026" lon="4.68165">
        <ele>159</ele>
        <time>2019-11-12T07:55:58Z</time>
      </trkpt>
      <trkpt lat="44.8303" lon="4.68163">
        <ele>161</ele>
        <time>2019-11-12T07:56:16Z</time>
      </trkpt>
      <trkpt lat="44.83016" lon="4.68157">
        <ele>157</ele>
        <time>2019-11-12T07:56:28Z</time>
      </trkpt>
      <trkpt lat="44.83007" lon="4.68153">
        <ele>154</ele>
        <time>2019-11-12T07:56:35Z</time>
      </trkpt>
      <trkpt lat="44.83001" lon="4.68152">
        <ele>153</ele>
        <time>2019-11-12T07:56:43Z</time>
      </trkpt>
      <trkpt lat="44.83001" lon="4.68154">
        <ele>153</ele>
        <time>2019-11-12T07:56:48Z</time>
      </trkpt>
      <trkpt lat="44.82995" lon="4.68147">
        <ele>152</ele>
        <time>2019-11-12T07:57:05Z</time>
      </trkpt>
      <trkpt lat="44.82994" lon="4.68145">
        <ele>152</ele>
        <time>2019-11-12T07:57:22Z</time>
      </trkpt>
      <trkpt lat="44.82994" lon="4.68145">
        <ele>152</ele>
        <time>2019-11-12T07:57:23Z</time>
      </trkpt>
      <trkpt lat="44.82992" lon="4.68149">
        <ele>151</ele>
        <time>2019-11-12T07:57:27Z</time>
      </trkpt>
      <trkpt lat="44.82989" lon="4.68159">
        <ele>150</ele>
        <time>2019-11-12T07:57:32Z</time>
      </trkpt>
      <trkpt lat="44.82987" lon="4.68192">
        <ele>150</ele>
        <time>2019-11-12T07:57:49Z</time>
      </trkpt>
      <trkpt lat="44.82992" lon="4.68204">
        <ele>151</ele>
        <time>2019-11-12T07:58:01Z</time>
      </trkpt>
      <trkpt lat="44.83" lon="4.68221">
        <ele>152</ele>
        <time>2019-11-12T07:58:15Z</time>
      </trkpt>
      <trkpt lat="44.83006" lon="4.68228">
        <ele>155</ele>
        <time>2019-11-12T07:58:28Z</time>
      </trkpt>
      <trkpt lat="44.83012" lon="4.68227">
        <ele>157</ele>
        <time>2019-11-12T07:58:41Z</time>
      </trkpt>
      <trkpt lat="44.83019" lon="4.68224">
        <ele>158</ele>
        <time>2019-11-12T07:58:54Z</time>
      </trkpt>
      <trkpt lat="44.83027" lon="4.68226">
        <ele>161</ele>
        <time>2019-11-12T07:59:07Z</time>
      </trkpt>
      <trkpt lat="44.83033" lon="4.68233">
        <ele>165</ele>
        <time>2019-11-12T07:59:20Z</time>
      </trkpt>
      <trkpt lat="44.8304" lon="4.68237">
        <ele>168</ele>
        <time>2019-11-12T07:59:36Z</time>
      </trkpt>
      <trkpt lat="44.83043" lon="4.68232">
        <ele>168</ele>
        <time>2019-11-12T07:59:49Z</time>
      </trkpt>
      <trkpt lat="44.83046" lon="4.68238">
        <ele>170</ele>
        <time>2019-11-12T08:00:00Z</time>
      </trkpt>
      <trkpt lat="44.8305" lon="4.68243">
        <ele>173</ele>
        <time>2019-11-12T08:00:16Z</time>
      </trkpt>
      <trkpt lat="44.83053" lon="4.68248">
        <ele>175</ele>
        <time>2019-11-12T08:00:34Z</time>
      </trkpt>
      <trkpt lat="44.83061" lon="4.68255">
        <ele>179</ele>
        <time>2019-11-12T08:00:51Z</time>
      </trkpt>
      <trkpt lat="44.8307" lon="4.68262">
        <ele>185</ele>
        <time>2019-11-12T08:01:07Z</time>
      </trkpt>
      <trkpt lat="44.83076" lon="4.68261">
        <ele>187</ele>
        <time>2019-11-12T08:01:20Z</time>
      </trkpt>
      <trkpt lat="44.83077" lon="4.68265">
        <ele>188</ele>
        <time>2019-11-12T08:01:32Z</time>
      </trkpt>
      <trkpt lat="44.83078" lon="4.68269">
        <ele>190</ele>
        <time>2019-11-12T08:01:48Z</time>
      </trkpt>
      <trkpt lat="44.83086" lon="4.68274">
        <ele>194</ele>
        <time>2019-11-12T08:02:02Z</time>
      </trkpt>
      <trkpt lat="44.83092" lon="4.68277">
        <ele>197</ele>
        <time>2019-11-12T08:02:18Z</time>
      </trkpt>
      <trkpt lat="44.83098" lon="4.68279">
        <ele>200</ele>
        <time>2019-11-12T08:02:31Z</time>
      </trkpt>
      <trkpt lat="44.83101" lon="4.68281">
        <ele>202</ele>
        <time>2019-11-12T08:02:45Z</time>
      </trkpt>
      <trkpt lat="44.83105" lon="4.68286">
        <ele>205</ele>
        <time>2019-11-12T08:02:57Z</time>
      </trkpt>
      <trkpt lat="44.83109" lon="4.68292">
        <ele>208</ele>
        <time>2019-11-12T08:03:12Z</time>
      </trkpt>
      <trkpt lat="44.83108" lon="4.68297">
        <ele>209</ele>
        <time>2019-11-12T08:03:31Z</time>
      </trkpt>
      <trkpt lat="44.8311" lon="4.68295">
        <ele>209</ele>
        <time>2019-11-12T08:03:48Z</time>
      </trkpt>
      <trkpt lat="44.83117" lon="4.68291">
        <ele>210</ele>
        <time>2019-11-12T08:04:03Z</time>
      </trkpt>
      <trkpt lat="44.83117" lon="4.6829">
        <ele>210</ele>
        <time>2019-11-12T08:04:22Z</time>
      </trkpt>
      <trkpt lat="44.83119" lon="4.68301">
        <ele>214</ele>
        <time>2019-11-12T08:04:36Z</time>
      </trkpt>
      <trkpt lat="44.83124" lon="4.68303">
        <ele>216</ele>
        <time>2019-11-12T08:04:45Z</time>
      </trkpt>
      <trkpt lat="44.83129" lon="4.68311">
        <ele>220</ele>
        <time>2019-11-12T08:04:58Z</time>
      </trkpt>
      <trkpt lat="44.83134" lon="4.68326">
        <ele>225</ele>
        <time>2019-11-12T08:05:13Z</time>
      </trkpt>
      <trkpt lat="44.83136" lon="4.68335">
        <ele>228</ele>
        <time>2019-11-12T08:05:26Z</time>
      </trkpt>
      <trkpt lat="44.83136" lon="4.68337">
        <ele>229</ele>
        <time>2019-11-12T08:05:38Z</time>
      </trkpt>
      <trkpt lat="44.83139" lon="4.68333">
        <ele>229</ele>
        <time>2019-11-12T08:05:55Z</time>
      </trkpt>
      <trkpt lat="44.83143" lon="4.68328">
        <ele>229</ele>
        <time>2019-11-12T08:06:12Z</time>
      </trkpt>
      <trkpt lat="44.83152" lon="4.68325">
        <ele>230</ele>
        <time>2019-11-12T08:06:24Z</time>
      </trkpt>
      <trkpt lat="44.83155" lon="4.68325">
        <ele>231</ele>
        <time>2019-11-12T08:06:37Z</time>
      </trkpt>
      <trkpt lat="44.83166" lon="4.68323">
        <ele>233</ele>
        <time>2019-11-12T08:06:48Z</time>
      </trkpt>
      <trkpt lat="44.83173" lon="4.68332">
        <ele>236</ele>
        <time>2019-11-12T08:07:01Z</time>
      </trkpt>
      <trkpt lat="44.83177" lon="4.68342">
        <ele>239</ele>
        <time>2019-11-12T08:07:12Z</time>
      </trkpt>
      <trkpt lat="44.8318" lon="4.68351">
        <ele>242</ele>
        <time>2019-11-12T08:07:25Z</time>
      </trkpt>
      <trkpt lat="44.83186" lon="4.68362">
        <ele>245</ele>
        <time>2019-11-12T08:07:38Z</time>
      </trkpt>
      <trkpt lat="44.83192" lon="4.68367">
        <ele>247</ele>
        <time>2019-11-12T08:07:52Z</time>
      </trkpt>
      <trkpt lat="44.83198" lon="4.68377">
        <ele>251</ele>
        <time>2019-11-12T08:08:07Z</time>
      </trkpt>
      <trkpt lat="44.83206" lon="4.68386">
        <ele>254</ele>
        <time>2019-11-12T08:08:23Z</time>
      </trkpt>
      <trkpt lat="44.83212" lon="4.68394">
        <ele>256</ele>
        <time>2019-11-12T08:08:39Z</time>
      </trkpt>
      <trkpt lat="44.83215" lon="4.68394">
        <ele>256</ele>
        <time>2019-11-12T08:08:55Z</time>
      </trkpt>
      <trkpt lat="44.8322" lon="4.68402">
        <ele>259</ele>
        <time>2019-11-12T08:09:07Z</time>
      </trkpt>
      <trkpt lat="44.83224" lon="4.68409">
        <ele>260</ele>
        <time>2019-11-12T08:09:15Z</time>
      </trkpt>
      <trkpt lat="44.83229" lon="4.68421">
        <ele>263</ele>
        <time>2019-11-12T08:09:28Z</time>
      </trkpt>
      <trkpt lat="44.83233" lon="4.68434">
        <ele>266</ele>
        <time>2019-11-12T08:09:41Z</time>
      </trkpt>
      <trkpt lat="44.83239" lon="4.68447">
        <ele>269</ele>
        <time>2019-11-12T08:09:55Z</time>
      </trkpt>
      <trkpt lat="44.83247" lon="4.68459">
        <ele>272</ele>
        <time>2019-11-12T08:10:10Z</time>
      </trkpt>
      <trkpt lat="44.83253" lon="4.68468">
        <ele>274</ele>
        <time>2019-11-12T08:10:22Z</time>
      </trkpt>
      <trkpt lat="44.83267" lon="4.68478">
        <ele>278</ele>
        <time>2019-11-12T08:10:40Z</time>
      </trkpt>
      <trkpt lat="44.83272" lon="4.68487">
        <ele>280</ele>
        <time>2019-11-12T08:10:54Z</time>
      </trkpt>
      <trkpt lat="44.83274" lon="4.68498">
        <ele>282</ele>
        <time>2019-11-12T08:11:10Z</time>
      </trkpt>
      <trkpt lat="44.83275" lon="4.68496">
        <ele>282</ele>
        <time>2019-11-12T08:11:23Z</time>
      </trkpt>
      <trkpt lat="44.83274" lon="4.68495">
        <ele>282</ele>
        <time>2019-11-12T08:11:39Z</time>
      </trkpt>
      <trkpt lat="44.83274" lon="4.68496">
        <ele>282</ele>
        <time>2019-11-12T08:11:49Z</time>
      </trkpt>
      <trkpt lat="44.83263" lon="4.68507">
        <ele>282</ele>
        <time>2019-11-12T08:12:02Z</time>
      </trkpt>
      <trkpt lat="44.83258" lon="4.68518">
        <ele>283</ele>
        <time>2019-11-12T08:12:10Z</time>
      </trkpt>
      <trkpt lat="44.8325" lon="4.68535">
        <ele>284</ele>
        <time>2019-11-12T08:12:24Z</time>
      </trkpt>
      <trkpt lat="44.83247" lon="4.68539">
        <ele>284</ele>
        <time>2019-11-12T08:12:27Z</time>
      </trkpt>
      <trkpt lat="44.83246" lon="4.68544">
        <ele>285</ele>
        <time>2019-11-12T08:12:30Z</time>
      </trkpt>
      <trkpt lat="44.83239" lon="4.6856">
        <ele>286</ele>
        <time>2019-11-12T08:12:42Z</time>
      </trkpt>
      <trkpt lat="44.83234" lon="4.68569">
        <ele>286</ele>
        <time>2019-11-12T08:12:49Z</time>
      </trkpt>
      <trkpt lat="44.83222" lon="4.68591">
        <ele>288</ele>
        <time>2019-11-12T08:13:07Z</time>
      </trkpt>
      <trkpt lat="44.83215" lon="4.68604">
        <ele>288</ele>
        <time>2019-11-12T08:13:17Z</time>
      </trkpt>
      <trkpt lat="44.83207" lon="4.68626">
        <ele>289</ele>
        <time>2019-11-12T08:13:33Z</time>
      </trkpt>
      <trkpt lat="44.83199" lon="4.68652">
        <ele>290</ele>
        <time>2019-11-12T08:13:50Z</time>
      </trkpt>
      <trkpt lat="44.83195" lon="4.68678">
        <ele>291</ele>
        <time>2019-11-12T08:14:05Z</time>
      </trkpt>
      <trkpt lat="44.83191" lon="4.68704">
        <ele>291</ele>
        <time>2019-11-12T08:14:21Z</time>
      </trkpt>
      <trkpt lat="44.83189" lon="4.68711">
        <ele>291</ele>
        <time>2019-11-12T08:14:26Z</time>
      </trkpt>
      <trkpt lat="44.83181" lon="4.68733">
        <ele>289</ele>
        <time>2019-11-12T08:14:42Z</time>
      </trkpt>
      <trkpt lat="44.83177" lon="4.68748">
        <ele>289</ele>
        <time>2019-11-12T08:14:53Z</time>
      </trkpt>
      <trkpt lat="44.83177" lon="4.6875">
        <ele>289</ele>
        <time>2019-11-12T08:14:55Z</time>
      </trkpt>
      <trkpt lat="44.83174" lon="4.68774">
        <ele>289</ele>
        <time>2019-11-12T08:15:10Z</time>
      </trkpt>
      <trkpt lat="44.83175" lon="4.68786">
        <ele>289</ele>
        <time>2019-11-12T08:15:18Z</time>
      </trkpt>
      <trkpt lat="44.83176" lon="4.68789">
        <ele>289</ele>
        <time>2019-11-12T08:15:20Z</time>
      </trkpt>
      <trkpt lat="44.83177" lon="4.68795">
        <ele>290</ele>
        <time>2019-11-12T08:15:24Z</time>
      </trkpt>
      <trkpt lat="44.83187" lon="4.68811">
        <ele>291</ele>
        <time>2019-11-12T08:15:39Z</time>
      </trkpt>
      <trkpt lat="44.83204" lon="4.68817">
        <ele>291</ele>
        <time>2019-11-12T08:15:55Z</time>
      </trkpt>
      <trkpt lat="44.83212" lon="4.68812">
        <ele>292</ele>
        <time>2019-11-12T08:16:04Z</time>
      </trkpt>
      <trkpt lat="44.8323" lon="4.68805">
        <ele>294</ele>
        <time>2019-11-12T08:16:20Z</time>
      </trkpt>
      <trkpt lat="44.8325" lon="4.68809">
        <ele>294</ele>
        <time>2019-11-12T08:16:36Z</time>
      </trkpt>
      <trkpt lat="44.83269" lon="4.68821">
        <ele>294</ele>
        <time>2019-11-12T08:16:52Z</time>
      </trkpt>
      <trkpt lat="44.83282" lon="4.68832">
        <ele>292</ele>
        <time>2019-11-12T08:17:04Z</time>
      </trkpt>
      <trkpt lat="44.83288" lon="4.68841">
        <ele>291</ele>
        <time>2019-11-12T08:17:11Z</time>
      </trkpt>
      <trkpt lat="44.83304" lon="4.68849">
        <ele>292</ele>
        <time>2019-11-12T08:17:27Z</time>
      </trkpt>
      <trkpt lat="44.83311" lon="4.68847">
        <ele>293</ele>
        <time>2019-11-12T08:17:33Z</time>
      </trkpt>
      <trkpt lat="44.83317" lon="4.68844">
        <ele>295</ele>
        <time>2019-11-12T08:17:38Z</time>
      </trkpt>
      <trkpt lat="44.8332" lon="4.68842">
        <ele>296</ele>
        <time>2019-11-12T08:17:41Z</time>
      </trkpt>
      <trkpt lat="44.8333" lon="4.6884">
        <ele>298</ele>
        <time>2019-11-12T08:17:53Z</time>
      </trkpt>
      <trkpt lat="44.8334" lon="4.68837">
        <ele>299</ele>
        <time>2019-11-12T08:18:05Z</time>
      </trkpt>
      <trkpt lat="44.83352" lon="4.68834">
        <ele>300</ele>
        <time>2019-11-12T08:18:18Z</time>
      </trkpt>
      <trkpt lat="44.83364" lon="4.6883">
        <ele>301</ele>
        <time>2019-11-12T08:18:30Z</time>
      </trkpt>
      <trkpt lat="44.83376" lon="4.68823">
        <ele>303</ele>
        <time>2019-11-12T08:18:42Z</time>
      </trkpt>
      <trkpt lat="44.83389" lon="4.68815">
        <ele>305</ele>
        <time>2019-11-12T08:18:56Z</time>
      </trkpt>
      <trkpt lat="44.83402" lon="4.6881">
        <ele>304</ele>
        <time>2019-11-12T08:19:07Z</time>
      </trkpt>
      <trkpt lat="44.83417" lon="4.68802">
        <ele>305</ele>
        <time>2019-11-12T08:19:21Z</time>
      </trkpt>
      <trkpt lat="44.83429" lon="4.68793">
        <ele>305</ele>
        <time>2019-11-12T08:19:33Z</time>
      </trkpt>
      <trkpt lat="44.83451" lon="4.68777">
        <ele>306</ele>
        <time>2019-11-12T08:19:52Z</time>
      </trkpt>
      <trkpt lat="44.83466" lon="4.68768">
        <ele>306</ele>
        <time>2019-11-12T08:20:06Z</time>
      </trkpt>
      <trkpt lat="44.83479" lon="4.68757">
        <ele>307</ele>
        <time>2019-11-12T08:20:18Z</time>
      </trkpt>
      <trkpt lat="44.8349" lon="4.68745">
        <ele>307</ele>
        <time>2019-11-12T08:20:31Z</time>
      </trkpt>
      <trkpt lat="44.83503" lon="4.68727">
        <ele>308</ele>
        <time>2019-11-12T08:20:47Z</time>
      </trkpt>
      <trkpt lat="44.83509" lon="4.68714">
        <ele>310</ele>
        <time>2019-11-12T08:20:58Z</time>
      </trkpt>
      <trkpt lat="44.83514" lon="4.687">
        <ele>312</ele>
        <time>2019-11-12T08:21:10Z</time>
      </trkpt>
      <trkpt lat="44.83517" lon="4.68684">
        <ele>315</ele>
        <time>2019-11-12T08:21:22Z</time>
      </trkpt>
      <trkpt lat="44.83523" lon="4.68663">
        <ele>319</ele>
        <time>2019-11-12T08:21:36Z</time>
      </trkpt>
      <trkpt lat="44.83535" lon="4.6866">
        <ele>319</ele>
        <time>2019-11-12T08:21:47Z</time>
      </trkpt>
      <trkpt lat="44.83542" lon="4.68661">
        <ele>318</ele>
        <time>2019-11-12T08:21:52Z</time>
      </trkpt>
      <trkpt lat="44.83565" lon="4.68665">
        <ele>316</ele>
        <time>2019-11-12T08:22:08Z</time>
      </trkpt>
      <trkpt lat="44.8357" lon="4.68665">
        <ele>316</ele>
        <time>2019-11-12T08:22:12Z</time>
      </trkpt>
      <trkpt lat="44.83593" lon="4.68665">
        <ele>317</ele>
        <time>2019-11-12T08:22:27Z</time>
      </trkpt>
      <trkpt lat="44.83604" lon="4.68665">
        <ele>318</ele>
        <time>2019-11-12T08:22:38Z</time>
      </trkpt>
      <trkpt lat="44.83618" lon="4.68667">
        <ele>321</ele>
        <time>2019-11-12T08:22:52Z</time>
      </trkpt>
      <trkpt lat="44.83626" lon="4.68669">
        <ele>323</ele>
        <time>2019-11-12T08:23:00Z</time>
      </trkpt>
      <trkpt lat="44.83635" lon="4.68673">
        <ele>325</ele>
        <time>2019-11-12T08:23:08Z</time>
      </trkpt>
      <trkpt lat="44.83637" lon="4.68675">
        <ele>325</ele>
        <time>2019-11-12T08:23:10Z</time>
      </trkpt>
      <trkpt lat="44.83648" lon="4.68692">
        <ele>324</ele>
        <time>2019-11-12T08:23:20Z</time>
      </trkpt>
      <trkpt lat="44.83655" lon="4.6871">
        <ele>321</ele>
        <time>2019-11-12T08:23:34Z</time>
      </trkpt>
      <trkpt lat="44.83662" lon="4.68731">
        <ele>318</ele>
        <time>2019-11-12T08:23:48Z</time>
      </trkpt>
      <trkpt lat="44.83666" lon="4.68741">
        <ele>317</ele>
        <time>2019-11-12T08:23:54Z</time>
      </trkpt>
      <trkpt lat="44.8367" lon="4.68746">
        <ele>317</ele>
        <time>2019-11-12T08:23:59Z</time>
      </trkpt>
      <trkpt lat="44.83673" lon="4.68752">
        <ele>317</ele>
        <time>2019-11-12T08:24:04Z</time>
      </trkpt>
      <trkpt lat="44.83677" lon="4.68757">
        <ele>317</ele>
        <time>2019-11-12T08:24:09Z</time>
      </trkpt>
      <trkpt lat="44.83681" lon="4.68762">
        <ele>317</ele>
        <time>2019-11-12T08:24:14Z</time>
      </trkpt>
      <trkpt lat="44.83686" lon="4.6877">
        <ele>317</ele>
        <time>2019-11-12T08:24:22Z</time>
      </trkpt>
      <trkpt lat="44.837" lon="4.68778">
        <ele>319</ele>
        <time>2019-11-12T08:24:36Z</time>
      </trkpt>
      <trkpt lat="44.83711" lon="4.68782">
        <ele>321</ele>
        <time>2019-11-12T08:24:49Z</time>
      </trkpt>
      <trkpt lat="44.83721" lon="4.68788">
        <ele>323</ele>
        <time>2019-11-12T08:25:01Z</time>
      </trkpt>
      <trkpt lat="44.83725" lon="4.6879">
        <ele>323</ele>
        <time>2019-11-12T08:25:05Z</time>
      </trkpt>
      <trkpt lat="44.83738" lon="4.68795">
        <ele>327</ele>
        <time>2019-11-12T08:25:17Z</time>
      </trkpt>
      <trkpt lat="44.8375" lon="4.6881">
        <ele>327</ele>
        <time>2019-11-12T08:25:31Z</time>
      </trkpt>
      <trkpt lat="44.83752" lon="4.68813">
        <ele>327</ele>
        <time>2019-11-12T08:25:34Z</time>
      </trkpt>
      <trkpt lat="44.83753" lon="4.68816">
        <ele>327</ele>
        <time>2019-11-12T08:25:36Z</time>
      </trkpt>
      <trkpt lat="44.83755" lon="4.68819">
        <ele>327</ele>
        <time>2019-11-12T08:25:39Z</time>
      </trkpt>
      <trkpt lat="44.83762" lon="4.68827">
        <ele>328</ele>
        <time>2019-11-12T08:25:47Z</time>
      </trkpt>
      <trkpt lat="44.83774" lon="4.68847">
        <ele>330</ele>
        <time>2019-11-12T08:26:03Z</time>
      </trkpt>
      <trkpt lat="44.83785" lon="4.68861">
        <ele>334</ele>
        <time>2019-11-12T08:26:17Z</time>
      </trkpt>
      <trkpt lat="44.83791" lon="4.68876">
        <ele>335</ele>
        <time>2019-11-12T08:26:29Z</time>
      </trkpt>
      <trkpt lat="44.83791" lon="4.68877">
        <ele>335</ele>
        <time>2019-11-12T08:26:30Z</time>
      </trkpt>
      <trkpt lat="44.83792" lon="4.68906">
        <ele>333</ele>
        <time>2019-11-12T08:26:47Z</time>
      </trkpt>
      <trkpt lat="44.83791" lon="4.68914">
        <ele>332</ele>
        <time>2019-11-12T08:26:52Z</time>
      </trkpt>
      <trkpt lat="44.8379" lon="4.68932">
        <ele>330</ele>
        <time>2019-11-12T08:27:02Z</time>
      </trkpt>
      <trkpt lat="44.83791" lon="4.68966">
        <ele>330</ele>
        <time>2019-11-12T08:27:20Z</time>
      </trkpt>
      <trkpt lat="44.83797" lon="4.68991">
        <ele>332</ele>
        <time>2019-11-12T08:27:36Z</time>
      </trkpt>
      <trkpt lat="44.83796" lon="4.6902">
        <ele>333</ele>
        <time>2019-11-12T08:27:53Z</time>
      </trkpt>
      <trkpt lat="44.83797" lon="4.69051">
        <ele>335</ele>
        <time>2019-11-12T08:28:09Z</time>
      </trkpt>
      <trkpt lat="44.83798" lon="4.69077">
        <ele>337</ele>
        <time>2019-11-12T08:28:26Z</time>
      </trkpt>
      <trkpt lat="44.83797" lon="4.69087">
        <ele>337</ele>
        <time>2019-11-12T08:28:33Z</time>
      </trkpt>
      <trkpt lat="44.83789" lon="4.69107">
        <ele>335</ele>
        <time>2019-11-12T08:28:49Z</time>
      </trkpt>
      <trkpt lat="44.83781" lon="4.69123">
        <ele>332</ele>
        <time>2019-11-12T08:29:02Z</time>
      </trkpt>
      <trkpt lat="44.83778" lon="4.69131">
        <ele>331</ele>
        <time>2019-11-12T08:29:07Z</time>
      </trkpt>
      <trkpt lat="44.83769" lon="4.69158">
        <ele>329</ele>
        <time>2019-11-12T08:29:22Z</time>
      </trkpt>
      <trkpt lat="44.8377" lon="4.69185">
        <ele>331</ele>
        <time>2019-11-12T08:29:39Z</time>
      </trkpt>
      <trkpt lat="44.83774" lon="4.69208">
        <ele>333</ele>
        <time>2019-11-12T08:29:56Z</time>
      </trkpt>
      <trkpt lat="44.83782" lon="4.69228">
        <ele>334</ele>
        <time>2019-11-12T08:30:12Z</time>
      </trkpt>
      <trkpt lat="44.83796" lon="4.69247">
        <ele>336</ele>
        <time>2019-11-12T08:30:29Z</time>
      </trkpt>
      <trkpt lat="44.83811" lon="4.69262">
        <ele>337</ele>
        <time>2019-11-12T08:30:48Z</time>
      </trkpt>
      <trkpt lat="44.83815" lon="4.69261">
        <ele>338</ele>
        <time>2019-11-12T08:31:02Z</time>
      </trkpt>
      <trkpt lat="44.83815" lon="4.69261">
        <ele>338</ele>
        <time>2019-11-12T08:31:22Z</time>
      </trkpt>
      <trkpt lat="44.83817" lon="4.6927">
        <ele>337</ele>
        <time>2019-11-12T08:31:32Z</time>
      </trkpt>
      <trkpt lat="44.83816" lon="4.69268">
        <ele>338</ele>
        <time>2019-11-12T08:31:39Z</time>
      </trkpt>
      <trkpt lat="44.83816" lon="4.69264">
        <ele>338</ele>
        <time>2019-11-12T08:31:49Z</time>
      </trkpt>
      <trkpt lat="44.83818" lon="4.69269">
        <ele>338</ele>
        <time>2019-11-12T08:31:52Z</time>
      </trkpt>
      <trkpt lat="44.83829" lon="4.69283">
        <ele>337</ele>
        <time>2019-11-12T08:32:08Z</time>
      </trkpt>
      <trkpt lat="44.83836" lon="4.69289">
        <ele>337</ele>
        <time>2019-11-12T08:32:15Z</time>
      </trkpt>
      <trkpt lat="44.8384" lon="4.69293">
        <ele>337</ele>
        <time>2019-11-12T08:32:32Z</time>
      </trkpt>
      <trkpt lat="44.83834" lon="4.69291">
        <ele>337</ele>
        <time>2019-11-12T08:32:37Z</time>
      </trkpt>
      <trkpt lat="44.8382" lon="4.69271">
        <ele>338</ele>
        <time>2019-11-12T08:32:54Z</time>
      </trkpt>
      <trkpt lat="44.83808" lon="4.69263">
        <ele>337</ele>
        <time>2019-11-12T08:33:05Z</time>
      </trkpt>
      <trkpt lat="44.8381" lon="4.69271">
        <ele>336</ele>
        <time>2019-11-12T08:33:10Z</time>
      </trkpt>
      <trkpt lat="44.83806" lon="4.69302">
        <ele>331</ele>
        <time>2019-11-12T08:33:26Z</time>
      </trkpt>
      <trkpt lat="44.83798" lon="4.69315">
        <ele>329</ele>
        <time>2019-11-12T08:33:42Z</time>
      </trkpt>
      <trkpt lat="44.83794" lon="4.69316">
        <ele>329</ele>
        <time>2019-11-12T08:33:51Z</time>
      </trkpt>
      <trkpt lat="44.83792" lon="4.69317">
        <ele>329</ele>
        <time>2019-11-12T08:33:56Z</time>
      </trkpt>
      <trkpt lat="44.83797" lon="4.69316">
        <ele>329</ele>
        <time>2019-11-12T08:34:01Z</time>
      </trkpt>
      <trkpt lat="44.83798" lon="4.69327">
        <ele>329</ele>
        <time>2019-11-12T08:34:08Z</time>
      </trkpt>
      <trkpt lat="44.83789" lon="4.69346">
        <ele>329</ele>
        <time>2019-11-12T08:34:23Z</time>
      </trkpt>
      <trkpt lat="44.83787" lon="4.69359">
        <ele>329</ele>
        <time>2019-11-12T08:34:40Z</time>
      </trkpt>
      <trkpt lat="44.83789" lon="4.69366">
        <ele>329</ele>
        <time>2019-11-12T08:34:56Z</time>
      </trkpt>
      <trkpt lat="44.83786" lon="4.69368">
        <ele>329</ele>
        <time>2019-11-12T08:35:22Z</time>
      </trkpt>
      <trkpt lat="44.83786" lon="4.6936">
        <ele>329</ele>
        <time>2019-11-12T08:35:29Z</time>
      </trkpt>
      <trkpt lat="44.83793" lon="4.69336">
        <ele>329</ele>
        <time>2019-11-12T08:35:45Z</time>
      </trkpt>
      <trkpt lat="44.83797" lon="4.6933">
        <ele>329</ele>
        <time>2019-11-12T08:35:50Z</time>
      </trkpt>
      <trkpt lat="44.83799" lon="4.69325">
        <ele>329</ele>
        <time>2019-11-12T08:35:54Z</time>
      </trkpt>
      <trkpt lat="44.83798" lon="4.69319">
        <ele>329</ele>
        <time>2019-11-12T08:35:58Z</time>
      </trkpt>
      <trkpt lat="44.83797" lon="4.69317">
        <ele>329</ele>
        <time>2019-11-12T08:36:00Z</time>
      </trkpt>
      <trkpt lat="44.83792" lon="4.69316">
        <ele>329</ele>
        <time>2019-11-12T08:36:06Z</time>
      </trkpt>
      <trkpt lat="44.83792" lon="4.69316">
        <ele>329</ele>
        <time>2019-11-12T08:36:14Z</time>
      </trkpt>
      <trkpt lat="44.83806" lon="4.69296">
        <ele>332</ele>
        <time>2019-11-12T08:36:32Z</time>
      </trkpt>
      <trkpt lat="44.83806" lon="4.69294">
        <ele>332</ele>
        <time>2019-11-12T08:36:34Z</time>
      </trkpt>
      <trkpt lat="44.83808" lon="4.69292">
        <ele>333</ele>
        <time>2019-11-12T08:36:43Z</time>
      </trkpt>
      <trkpt lat="44.83807" lon="4.69298">
        <ele>332</ele>
        <time>2019-11-12T08:36:47Z</time>
      </trkpt>
      <trkpt lat="44.838" lon="4.69312">
        <ele>330</ele>
        <time>2019-11-12T08:36:57Z</time>
      </trkpt>
      <trkpt lat="44.83796" lon="4.69313">
        <ele>329</ele>
        <time>2019-11-12T08:37:02Z</time>
      </trkpt>
      <trkpt lat="44.83799" lon="4.69323">
        <ele>329</ele>
        <time>2019-11-12T08:37:09Z</time>
      </trkpt>
      <trkpt lat="44.83799" lon="4.69335">
        <ele>329</ele>
        <time>2019-11-12T08:37:18Z</time>
      </trkpt>
      <trkpt lat="44.83805" lon="4.69333">
        <ele>329</ele>
        <time>2019-11-12T08:37:23Z</time>
      </trkpt>
      <trkpt lat="44.83806" lon="4.69348">
        <ele>328</ele>
        <time>2019-11-12T08:37:38Z</time>
      </trkpt>
      <trkpt lat="44.83806" lon="4.69344">
        <ele>328</ele>
        <time>2019-11-12T08:37:45Z</time>
      </trkpt>
      <trkpt lat="44.83802" lon="4.69334">
        <ele>329</ele>
        <time>2019-11-12T08:37:55Z</time>
      </trkpt>
      <trkpt lat="44.83799" lon="4.69335">
        <ele>329</ele>
        <time>2019-11-12T08:37:59Z</time>
      </trkpt>
      <trkpt lat="44.83804" lon="4.69305">
        <ele>331</ele>
        <time>2019-11-12T08:38:17Z</time>
      </trkpt>
      <trkpt lat="44.83811" lon="4.69283">
        <ele>334</ele>
        <time>2019-11-12T08:38:32Z</time>
      </trkpt>
      <trkpt lat="44.83811" lon="4.69274">
        <ele>336</ele>
        <time>2019-11-12T08:38:38Z</time>
      </trkpt>
      <trkpt lat="44.83807" lon="4.69266">
        <ele>336</ele>
        <time>2019-11-12T08:38:44Z</time>
      </trkpt>
      <trkpt lat="44.83808" lon="4.69262">
        <ele>337</ele>
        <time>2019-11-12T08:38:47Z</time>
      </trkpt>
      <trkpt lat="44.83812" lon="4.69253">
        <ele>339</ele>
        <time>2019-11-12T08:38:56Z</time>
      </trkpt>
      <trkpt lat="44.8381" lon="4.69249">
        <ele>339</ele>
        <time>2019-11-12T08:39:00Z</time>
      </trkpt>
      <trkpt lat="44.83807" lon="4.69242">
        <ele>340</ele>
        <time>2019-11-12T08:39:06Z</time>
      </trkpt>
      <trkpt lat="44.83805" lon="4.69237">
        <ele>340</ele>
        <time>2019-11-12T08:39:10Z</time>
      </trkpt>
      <trkpt lat="44.83805" lon="4.69219">
        <ele>343</ele>
        <time>2019-11-12T08:39:24Z</time>
      </trkpt>
      <trkpt lat="44.83803" lon="4.69209">
        <ele>344</ele>
        <time>2019-11-12T08:39:36Z</time>
      </trkpt>
      <trkpt lat="44.83804" lon="4.69194">
        <ele>346</ele>
        <time>2019-11-12T08:39:52Z</time>
      </trkpt>
      <trkpt lat="44.83809" lon="4.69188">
        <ele>348</ele>
        <time>2019-11-12T08:40:05Z</time>
      </trkpt>
      <trkpt lat="44.83818" lon="4.69188">
        <ele>350</ele>
        <time>2019-11-12T08:40:18Z</time>
      </trkpt>
      <trkpt lat="44.83827" lon="4.69189">
        <ele>353</ele>
        <time>2019-11-12T08:40:32Z</time>
      </trkpt>
      <trkpt lat="44.8383" lon="4.6919">
        <ele>354</ele>
        <time>2019-11-12T08:40:36Z</time>
      </trkpt>
      <trkpt lat="44.83839" lon="4.69189">
        <ele>356</ele>
        <time>2019-11-12T08:40:49Z</time>
      </trkpt>
      <trkpt lat="44.83845" lon="4.69184">
        <ele>357</ele>
        <time>2019-11-12T08:41:02Z</time>
      </trkpt>
      <trkpt lat="44.83855" lon="4.69174">
        <ele>360</ele>
        <time>2019-11-12T08:41:16Z</time>
      </trkpt>
      <trkpt lat="44.8386" lon="4.69168">
        <ele>362</ele>
        <time>2019-11-12T08:41:27Z</time>
      </trkpt>
      <trkpt lat="44.83868" lon="4.69159">
        <ele>362</ele>
        <time>2019-11-12T08:41:41Z</time>
      </trkpt>
      <trkpt lat="44.83877" lon="4.69149">
        <ele>362</ele>
        <time>2019-11-12T08:41:54Z</time>
      </trkpt>
      <trkpt lat="44.83885" lon="4.69137">
        <ele>362</ele>
        <time>2019-11-12T08:42:07Z</time>
      </trkpt>
      <trkpt lat="44.83892" lon="4.69126">
        <ele>363</ele>
        <time>2019-11-12T08:42:19Z</time>
      </trkpt>
      <trkpt lat="44.83897" lon="4.69114">
        <ele>364</ele>
        <time>2019-11-12T08:42:31Z</time>
      </trkpt>
      <trkpt lat="44.839" lon="4.69102">
        <ele>366</ele>
        <time>2019-11-12T08:42:43Z</time>
      </trkpt>
      <trkpt lat="44.83903" lon="4.69089">
        <ele>367</ele>
        <time>2019-11-12T08:42:57Z</time>
      </trkpt>
      <trkpt lat="44.83907" lon="4.69073">
        <ele>370</ele>
        <time>2019-11-12T08:43:11Z</time>
      </trkpt>
      <trkpt lat="44.8391" lon="4.69053">
        <ele>373</ele>
        <time>2019-11-12T08:43:26Z</time>
      </trkpt>
      <trkpt lat="44.83914" lon="4.69037">
        <ele>376</ele>
        <time>2019-11-12T08:43:40Z</time>
      </trkpt>
      <trkpt lat="44.8392" lon="4.69026">
        <ele>379</ele>
        <time>2019-11-12T08:43:52Z</time>
      </trkpt>
      <trkpt lat="44.83925" lon="4.69016">
        <ele>381</ele>
        <time>2019-11-12T08:44:07Z</time>
      </trkpt>
      <trkpt lat="44.83928" lon="4.69006">
        <ele>383</ele>
        <time>2019-11-12T08:44:20Z</time>
      </trkpt>
      <trkpt lat="44.83935" lon="4.68994">
        <ele>386</ele>
        <time>2019-11-12T08:44:35Z</time>
      </trkpt>
      <trkpt lat="44.83943" lon="4.68987">
        <ele>388</ele>
        <time>2019-11-12T08:44:48Z</time>
      </trkpt>
      <trkpt lat="44.8395" lon="4.68981">
        <ele>388</ele>
        <time>2019-11-12T08:45:01Z</time>
      </trkpt>
      <trkpt lat="44.83955" lon="4.6897">
        <ele>390</ele>
        <time>2019-11-12T08:45:14Z</time>
      </trkpt>
      <trkpt lat="44.83964" lon="4.68958">
        <ele>392</ele>
        <time>2019-11-12T08:45:27Z</time>
      </trkpt>
      <trkpt lat="44.83972" lon="4.68949">
        <ele>393</ele>
        <time>2019-11-12T08:45:38Z</time>
      </trkpt>
      <trkpt lat="44.83978" lon="4.68937">
        <ele>396</ele>
        <time>2019-11-12T08:45:51Z</time>
      </trkpt>
      <trkpt lat="44.83979" lon="4.68925">
        <ele>398</ele>
        <time>2019-11-12T08:46:04Z</time>
      </trkpt>
      <trkpt lat="44.83981" lon="4.68909">
        <ele>401</ele>
        <time>2019-11-12T08:46:18Z</time>
      </trkpt>
      <trkpt lat="44.83979" lon="4.68888">
        <ele>403</ele>
        <time>2019-11-12T08:46:33Z</time>
      </trkpt>
      <trkpt lat="44.83977" lon="4.68872">
        <ele>404</ele>
        <time>2019-11-12T08:46:47Z</time>
      </trkpt>
      <trkpt lat="44.83975" lon="4.68855">
        <ele>406</ele>
        <time>2019-11-12T08:47:02Z</time>
      </trkpt>
      <trkpt lat="44.83975" lon="4.68842">
        <ele>407</ele>
        <time>2019-11-12T08:47:16Z</time>
      </trkpt>
      <trkpt lat="44.83977" lon="4.68824">
        <ele>409</ele>
        <time>2019-11-12T08:47:31Z</time>
      </trkpt>
      <trkpt lat="44.8398" lon="4.68809">
        <ele>411</ele>
        <time>2019-11-12T08:47:45Z</time>
      </trkpt>
      <trkpt lat="44.83981" lon="4.68797">
        <ele>413</ele>
        <time>2019-11-12T08:48:00Z</time>
      </trkpt>
      <trkpt lat="44.83982" lon="4.68782">
        <ele>414</ele>
        <time>2019-11-12T08:48:15Z</time>
      </trkpt>
      <trkpt lat="44.83981" lon="4.68766">
        <ele>416</ele>
        <time>2019-11-12T08:48:28Z</time>
      </trkpt>
      <trkpt lat="44.83982" lon="4.68748">
        <ele>418</ele>
        <time>2019-11-12T08:48:44Z</time>
      </trkpt>
      <trkpt lat="44.83983" lon="4.68734">
        <ele>420</ele>
        <time>2019-11-12T08:48:59Z</time>
      </trkpt>
      <trkpt lat="44.83982" lon="4.68718">
        <ele>421</ele>
        <time>2019-11-12T08:49:14Z</time>
      </trkpt>
      <trkpt lat="44.83981" lon="4.68717">
        <ele>421</ele>
        <time>2019-11-12T08:49:16Z</time>
      </trkpt>
      <trkpt lat="44.83979" lon="4.68704">
        <ele>423</ele>
        <time>2019-11-12T08:49:29Z</time>
      </trkpt>
      <trkpt lat="44.83976" lon="4.68688">
        <ele>425</ele>
        <time>2019-11-12T08:49:43Z</time>
      </trkpt>
      <trkpt lat="44.83972" lon="4.68676">
        <ele>426</ele>
        <time>2019-11-12T08:49:55Z</time>
      </trkpt>
      <trkpt lat="44.8397" lon="4.68658">
        <ele>428</ele>
        <time>2019-11-12T08:50:10Z</time>
      </trkpt>
      <trkpt lat="44.83968" lon="4.6864">
        <ele>430</ele>
        <time>2019-11-12T08:50:24Z</time>
      </trkpt>
      <trkpt lat="44.83967" lon="4.68621">
        <ele>432</ele>
        <time>2019-11-12T08:50:39Z</time>
      </trkpt>
      <trkpt lat="44.83965" lon="4.68605">
        <ele>434</ele>
        <time>2019-11-12T08:50:53Z</time>
      </trkpt>
      <trkpt lat="44.83961" lon="4.68594">
        <ele>436</ele>
        <time>2019-11-12T08:51:07Z</time>
      </trkpt>
      <trkpt lat="44.83957" lon="4.68575">
        <ele>438</ele>
        <time>2019-11-12T08:51:23Z</time>
      </trkpt>
      <trkpt lat="44.83956" lon="4.68554">
        <ele>439</ele>
        <time>2019-11-12T08:51:40Z</time>
      </trkpt>
      <trkpt lat="44.83955" lon="4.68537">
        <ele>441</ele>
        <time>2019-11-12T08:51:54Z</time>
      </trkpt>
      <trkpt lat="44.83957" lon="4.68518">
        <ele>442</ele>
        <time>2019-11-12T08:52:08Z</time>
      </trkpt>
      <trkpt lat="44.83965" lon="4.68504">
        <ele>442</ele>
        <time>2019-11-12T08:52:22Z</time>
      </trkpt>
      <trkpt lat="44.83972" lon="4.68487">
        <ele>443</ele>
        <time>2019-11-12T08:52:38Z</time>
      </trkpt>
      <trkpt lat="44.83979" lon="4.68478">
        <ele>444</ele>
        <time>2019-11-12T08:52:50Z</time>
      </trkpt>
      <trkpt lat="44.83985" lon="4.68466">
        <ele>445</ele>
        <time>2019-11-12T08:53:03Z</time>
      </trkpt>
      <trkpt lat="44.8399" lon="4.68456">
        <ele>447</ele>
        <time>2019-11-12T08:53:12Z</time>
      </trkpt>
      <trkpt lat="44.83995" lon="4.68441">
        <ele>448</ele>
        <time>2019-11-12T08:53:27Z</time>
      </trkpt>
      <trkpt lat="44.83995" lon="4.68436">
        <ele>448</ele>
        <time>2019-11-12T08:53:38Z</time>
      </trkpt>
      <trkpt lat="44.83996" lon="4.68435">
        <ele>449</ele>
        <time>2019-11-12T08:54:02Z</time>
      </trkpt>
      <trkpt lat="44.84" lon="4.68432">
        <ele>449</ele>
        <time>2019-11-12T08:54:10Z</time>
      </trkpt>
      <trkpt lat="44.84008" lon="4.68423">
        <ele>449</ele>
        <time>2019-11-12T08:54:25Z</time>
      </trkpt>
      <trkpt lat="44.84009" lon="4.68422">
        <ele>449</ele>
        <time>2019-11-12T08:54:48Z</time>
      </trkpt>
      <trkpt lat="44.84011" lon="4.68422">
        <ele>448</ele>
        <time>2019-11-12T08:55:09Z</time>
      </trkpt>
      <trkpt lat="44.84008" lon="4.68424">
        <ele>449</ele>
        <time>2019-11-12T08:55:20Z</time>
      </trkpt>
      <trkpt lat="44.83996" lon="4.68433">
        <ele>449</ele>
        <time>2019-11-12T08:55:36Z</time>
      </trkpt>
      <trkpt lat="44.83994" lon="4.68434">
        <ele>448</ele>
        <time>2019-11-12T08:55:57Z</time>
      </trkpt>
      <trkpt lat="44.83996" lon="4.68433">
        <ele>449</ele>
        <time>2019-11-12T08:56:03Z</time>
      </trkpt>
      <trkpt lat="44.84004" lon="4.68429">
        <ele>449</ele>
        <time>2019-11-12T08:56:11Z</time>
      </trkpt>
      <trkpt lat="44.84009" lon="4.68422">
        <ele>449</ele>
        <time>2019-11-12T08:56:28Z</time>
      </trkpt>
      <trkpt lat="44.84009" lon="4.6842">
        <ele>449</ele>
        <time>2019-11-12T08:56:56Z</time>
      </trkpt>
      <trkpt lat="44.84008" lon="4.68424">
        <ele>449</ele>
        <time>2019-11-12T08:57:15Z</time>
      </trkpt>
      <trkpt lat="44.84009" lon="4.68424">
        <ele>449</ele>
        <time>2019-11-12T08:57:34Z</time>
      </trkpt>
      <trkpt lat="44.84013" lon="4.68425">
        <ele>448</ele>
        <time>2019-11-12T08:58:06Z</time>
      </trkpt>
      <trkpt lat="44.84016" lon="4.68428">
        <ele>447</ele>
        <time>2019-11-12T08:58:38Z</time>
      </trkpt>
      <trkpt lat="44.84013" lon="4.68426">
        <ele>448</ele>
        <time>2019-11-12T08:59:07Z</time>
      </trkpt>
      <trkpt lat="44.84011" lon="4.68425">
        <ele>448</ele>
        <time>2019-11-12T08:59:37Z</time>
      </trkpt>
      <trkpt lat="44.84016" lon="4.68424">
        <ele>448</ele>
        <time>2019-11-12T09:00:08Z</time>
      </trkpt>
      <trkpt lat="44.84017" lon="4.68424">
        <ele>448</ele>
        <time>2019-11-12T09:00:16Z</time>
      </trkpt>
      <trkpt lat="44.84015" lon="4.68425">
        <ele>448</ele>
        <time>2019-11-12T09:00:33Z</time>
      </trkpt>
      <trkpt lat="44.84011" lon="4.68425">
        <ele>448</ele>
        <time>2019-11-12T09:00:52Z</time>
      </trkpt>
      <trkpt lat="44.8401" lon="4.68423">
        <ele>448</ele>
        <time>2019-11-12T09:01:15Z</time>
      </trkpt>
      <trkpt lat="44.84011" lon="4.68424">
        <ele>448</ele>
        <time>2019-11-12T09:01:42Z</time>
      </trkpt>
      <trkpt lat="44.84009" lon="4.68426">
        <ele>449</ele>
        <time>2019-11-12T09:02:01Z</time>
      </trkpt>
      <trkpt lat="44.84007" lon="4.68425">
        <ele>449</ele>
        <time>2019-11-12T09:02:23Z</time>
      </trkpt>
      <trkpt lat="44.84005" lon="4.68426">
        <ele>449</ele>
        <time>2019-11-12T09:02:39Z</time>
      </trkpt>
      <trkpt lat="44.84004" lon="4.68429">
        <ele>449</ele>
        <time>2019-11-12T09:02:55Z</time>
      </trkpt>
      <trkpt lat="44.84004" lon="4.68431">
        <ele>449</ele>
        <time>2019-11-12T09:03:25Z</time>
      </trkpt>
      <trkpt lat="44.84006" lon="4.68421">
        <ele>449</ele>
        <time>2019-11-12T09:03:40Z</time>
      </trkpt>
      <trkpt lat="44.84007" lon="4.6841">
        <ele>450</ele>
        <time>2019-11-12T09:03:51Z</time>
      </trkpt>
      <trkpt lat="44.84008" lon="4.68392">
        <ele>450</ele>
        <time>2019-11-12T09:04:06Z</time>
      </trkpt>
      <trkpt lat="44.84011" lon="4.68379">
        <ele>451</ele>
        <time>2019-11-12T09:04:19Z</time>
      </trkpt>
      <trkpt lat="44.84018" lon="4.68364">
        <ele>452</ele>
        <time>2019-11-12T09:04:32Z</time>
      </trkpt>
      <trkpt lat="44.84024" lon="4.68343">
        <ele>453</ele>
        <time>2019-11-12T09:04:44Z</time>
      </trkpt>
      <trkpt lat="44.84031" lon="4.68312">
        <ele>455</ele>
        <time>2019-11-12T09:05:02Z</time>
      </trkpt>
      <trkpt lat="44.84038" lon="4.68293">
        <ele>457</ele>
        <time>2019-11-12T09:05:16Z</time>
      </trkpt>
      <trkpt lat="44.84046" lon="4.68285">
        <ele>458</ele>
        <time>2019-11-12T09:05:27Z</time>
      </trkpt>
      <trkpt lat="44.84055" lon="4.68269">
        <ele>461</ele>
        <time>2019-11-12T09:05:44Z</time>
      </trkpt>
      <trkpt lat="44.84066" lon="4.68256">
        <ele>464</ele>
        <time>2019-11-12T09:06:01Z</time>
      </trkpt>
      <trkpt lat="44.84076" lon="4.68244">
        <ele>466</ele>
        <time>2019-11-12T09:06:16Z</time>
      </trkpt>
      <trkpt lat="44.84085" lon="4.68238">
        <ele>466</ele>
        <time>2019-11-12T09:06:32Z</time>
      </trkpt>
      <trkpt lat="44.84098" lon="4.68233">
        <ele>466</ele>
        <time>2019-11-12T09:06:46Z</time>
      </trkpt>
      <trkpt lat="44.84112" lon="4.68235">
        <ele>467</ele>
        <time>2019-11-12T09:07:02Z</time>
      </trkpt>
      <trkpt lat="44.84131" lon="4.68239">
        <ele>469</ele>
        <time>2019-11-12T09:07:16Z</time>
      </trkpt>
      <trkpt lat="44.84148" lon="4.68244">
        <ele>471</ele>
        <time>2019-11-12T09:07:31Z</time>
      </trkpt>
      <trkpt lat="44.84164" lon="4.68246">
        <ele>472</ele>
        <time>2019-11-12T09:07:46Z</time>
      </trkpt>
      <trkpt lat="44.84175" lon="4.68248">
        <ele>473</ele>
        <time>2019-11-12T09:08:04Z</time>
      </trkpt>
      <trkpt lat="44.84185" lon="4.68251">
        <ele>474</ele>
        <time>2019-11-12T09:08:19Z</time>
      </trkpt>
      <trkpt lat="44.84198" lon="4.68257">
        <ele>475</ele>
        <time>2019-11-12T09:08:32Z</time>
      </trkpt>
      <trkpt lat="44.84214" lon="4.68263">
        <ele>477</ele>
        <time>2019-11-12T09:08:47Z</time>
      </trkpt>
      <trkpt lat="44.8423" lon="4.68269">
        <ele>480</ele>
        <time>2019-11-12T09:09:00Z</time>
      </trkpt>
      <trkpt lat="44.84242" lon="4.68275">
        <ele>483</ele>
        <time>2019-11-12T09:09:14Z</time>
      </trkpt>
      <trkpt lat="44.84251" lon="4.68281">
        <ele>484</ele>
        <time>2019-11-12T09:09:27Z</time>
      </trkpt>
      <trkpt lat="44.84268" lon="4.68284">
        <ele>488</ele>
        <time>2019-11-12T09:09:44Z</time>
      </trkpt>
      <trkpt lat="44.84284" lon="4.68285">
        <ele>490</ele>
        <time>2019-11-12T09:10:00Z</time>
      </trkpt>
      <trkpt lat="44.84294" lon="4.68287">
        <ele>492</ele>
        <time>2019-11-12T09:10:15Z</time>
      </trkpt>
      <trkpt lat="44.84307" lon="4.68289">
        <ele>494</ele>
        <time>2019-11-12T09:10:30Z</time>
      </trkpt>
      <trkpt lat="44.84321" lon="4.68289">
        <ele>497</ele>
        <time>2019-11-12T09:10:45Z</time>
      </trkpt>
      <trkpt lat="44.84336" lon="4.68289">
        <ele>499</ele>
        <time>2019-11-12T09:11:00Z</time>
      </trkpt>
      <trkpt lat="44.8435" lon="4.68286">
        <ele>501</ele>
        <time>2019-11-12T09:11:16Z</time>
      </trkpt>
      <trkpt lat="44.84361" lon="4.68282">
        <ele>502</ele>
        <time>2019-11-12T09:11:30Z</time>
      </trkpt>
      <trkpt lat="44.84373" lon="4.68285">
        <ele>504</ele>
        <time>2019-11-12T09:11:44Z</time>
      </trkpt>
      <trkpt lat="44.84383" lon="4.68283">
        <ele>505</ele>
        <time>2019-11-12T09:11:56Z</time>
      </trkpt>
      <trkpt lat="44.84402" lon="4.68283">
        <ele>508</ele>
        <time>2019-11-12T09:12:10Z</time>
      </trkpt>
      <trkpt lat="44.84416" lon="4.68281">
        <ele>509</ele>
        <time>2019-11-12T09:12:21Z</time>
      </trkpt>
      <trkpt lat="44.8443" lon="4.6828">
        <ele>511</ele>
        <time>2019-11-12T09:12:36Z</time>
      </trkpt>
      <trkpt lat="44.84442" lon="4.68279">
        <ele>514</ele>
        <time>2019-11-12T09:12:50Z</time>
      </trkpt>
      <trkpt lat="44.84455" lon="4.68276">
        <ele>515</ele>
        <time>2019-11-12T09:13:04Z</time>
      </trkpt>
      <trkpt lat="44.84467" lon="4.68276">
        <ele>518</ele>
        <time>2019-11-12T09:13:19Z</time>
      </trkpt>
      <trkpt lat="44.84476" lon="4.68273">
        <ele>519</ele>
        <time>2019-11-12T09:13:33Z</time>
      </trkpt>
      <trkpt lat="44.84486" lon="4.68271">
        <ele>520</ele>
        <time>2019-11-12T09:13:43Z</time>
      </trkpt>
      <trkpt lat="44.84496" lon="4.68268">
        <ele>521</ele>
        <time>2019-11-12T09:13:55Z</time>
      </trkpt>
      <trkpt lat="44.84509" lon="4.68265">
        <ele>522</ele>
        <time>2019-11-12T09:14:10Z</time>
      </trkpt>
      <trkpt lat="44.8452" lon="4.6826">
        <ele>522</ele>
        <time>2019-11-12T09:14:24Z</time>
      </trkpt>
      <trkpt lat="44.84533" lon="4.68258">
        <ele>523</ele>
        <time>2019-11-12T09:14:39Z</time>
      </trkpt>
      <trkpt lat="44.84548" lon="4.68255">
        <ele>525</ele>
        <time>2019-11-12T09:14:55Z</time>
      </trkpt>
      <trkpt lat="44.84559" lon="4.68251">
        <ele>526</ele>
        <time>2019-11-12T09:15:08Z</time>
      </trkpt>
      <trkpt lat="44.84572" lon="4.68251">
        <ele>528</ele>
        <time>2019-11-12T09:15:23Z</time>
      </trkpt>
      <trkpt lat="44.84585" lon="4.6825">
        <ele>530</ele>
        <time>2019-11-12T09:15:36Z</time>
      </trkpt>
      <trkpt lat="44.84596" lon="4.68246">
        <ele>531</ele>
        <time>2019-11-12T09:15:49Z</time>
      </trkpt>
      <trkpt lat="44.84606" lon="4.68239">
        <ele>531</ele>
        <time>2019-11-12T09:16:02Z</time>
      </trkpt>
      <trkpt lat="44.84622" lon="4.68231">
        <ele>532</ele>
        <time>2019-11-12T09:16:18Z</time>
      </trkpt>
      <trkpt lat="44.84636" lon="4.68227">
        <ele>535</ele>
        <time>2019-11-12T09:16:32Z</time>
      </trkpt>
      <trkpt lat="44.84649" lon="4.6822">
        <ele>537</ele>
        <time>2019-11-12T09:16:46Z</time>
      </trkpt>
      <trkpt lat="44.84661" lon="4.68213">
        <ele>538</ele>
        <time>2019-11-12T09:17:00Z</time>
      </trkpt>
      <trkpt lat="44.8467" lon="4.68206">
        <ele>539</ele>
        <time>2019-11-12T09:17:13Z</time>
      </trkpt>
      <trkpt lat="44.84681" lon="4.68195">
        <ele>540</ele>
        <time>2019-11-12T09:17:28Z</time>
      </trkpt>
      <trkpt lat="44.84691" lon="4.68184">
        <ele>541</ele>
        <time>2019-11-12T09:17:44Z</time>
      </trkpt>
      <trkpt lat="44.84698" lon="4.68174">
        <ele>541</ele>
        <time>2019-11-12T09:17:56Z</time>
      </trkpt>
      <trkpt lat="44.84704" lon="4.68158">
        <ele>541</ele>
        <time>2019-11-12T09:18:11Z</time>
      </trkpt>
      <trkpt lat="44.84713" lon="4.68144">
        <ele>541</ele>
        <time>2019-11-12T09:18:26Z</time>
      </trkpt>
      <trkpt lat="44.84721" lon="4.68133">
        <ele>541</ele>
        <time>2019-11-12T09:18:40Z</time>
      </trkpt>
      <trkpt lat="44.84732" lon="4.68118">
        <ele>542</ele>
        <time>2019-11-12T09:18:57Z</time>
      </trkpt>
      <trkpt lat="44.84743" lon="4.6811">
        <ele>543</ele>
        <time>2019-11-12T09:19:11Z</time>
      </trkpt>
      <trkpt lat="44.84754" lon="4.68101">
        <ele>544</ele>
        <time>2019-11-12T09:19:26Z</time>
      </trkpt>
      <trkpt lat="44.84768" lon="4.68098">
        <ele>546</ele>
        <time>2019-11-12T09:19:40Z</time>
      </trkpt>
      <trkpt lat="44.8478" lon="4.68099">
        <ele>549</ele>
        <time>2019-11-12T09:19:53Z</time>
      </trkpt>
      <trkpt lat="44.84789" lon="4.68095">
        <ele>549</ele>
        <time>2019-11-12T09:20:07Z</time>
      </trkpt>
      <trkpt lat="44.84802" lon="4.68098">
        <ele>552</ele>
        <time>2019-11-12T09:20:20Z</time>
      </trkpt>
      <trkpt lat="44.84816" lon="4.68094">
        <ele>552</ele>
        <time>2019-11-12T09:20:34Z</time>
      </trkpt>
      <trkpt lat="44.84833" lon="4.6809">
        <ele>552</ele>
        <time>2019-11-12T09:20:48Z</time>
      </trkpt>
      <trkpt lat="44.8485" lon="4.68085">
        <ele>552</ele>
        <time>2019-11-12T09:21:03Z</time>
      </trkpt>
      <trkpt lat="44.8487" lon="4.68082">
        <ele>552</ele>
        <time>2019-11-12T09:21:20Z</time>
      </trkpt>
      <trkpt lat="44.84882" lon="4.68077">
        <ele>551</ele>
        <time>2019-11-12T09:21:33Z</time>
      </trkpt>
      <trkpt lat="44.84898" lon="4.68078">
        <ele>553</ele>
        <time>2019-11-12T09:21:46Z</time>
      </trkpt>
      <trkpt lat="44.84905" lon="4.68078">
        <ele>554</ele>
        <time>2019-11-12T09:21:58Z</time>
      </trkpt>
      <trkpt lat="44.84922" lon="4.68076">
        <ele>556</ele>
        <time>2019-11-12T09:22:11Z</time>
      </trkpt>
      <trkpt lat="44.84932" lon="4.68077">
        <ele>558</ele>
        <time>2019-11-12T09:22:24Z</time>
      </trkpt>
      <trkpt lat="44.84944" lon="4.68076">
        <ele>560</ele>
        <time>2019-11-12T09:22:38Z</time>
      </trkpt>
      <trkpt lat="44.84958" lon="4.68076">
        <ele>563</ele>
        <time>2019-11-12T09:22:51Z</time>
      </trkpt>
      <trkpt lat="44.84973" lon="4.68071">
        <ele>566</ele>
        <time>2019-11-12T09:23:06Z</time>
      </trkpt>
      <trkpt lat="44.84983" lon="4.68058">
        <ele>568</ele>
        <time>2019-11-12T09:23:23Z</time>
      </trkpt>
      <trkpt lat="44.84991" lon="4.68049">
        <ele>569</ele>
        <time>2019-11-12T09:23:35Z</time>
      </trkpt>
      <trkpt lat="44.84995" lon="4.68034">
        <ele>569</ele>
        <time>2019-11-12T09:23:51Z</time>
      </trkpt>
      <trkpt lat="44.84997" lon="4.68014">
        <ele>568</ele>
        <time>2019-11-12T09:24:07Z</time>
      </trkpt>
      <trkpt lat="44.84995" lon="4.67996">
        <ele>565</ele>
        <time>2019-11-12T09:24:20Z</time>
      </trkpt>
      <trkpt lat="44.84993" lon="4.67984">
        <ele>564</ele>
        <time>2019-11-12T09:24:32Z</time>
      </trkpt>
      <trkpt lat="44.84997" lon="4.67969">
        <ele>565</ele>
        <time>2019-11-12T09:24:45Z</time>
      </trkpt>
      <trkpt lat="44.85" lon="4.67961">
        <ele>567</ele>
        <time>2019-11-12T09:24:53Z</time>
      </trkpt>
      <trkpt lat="44.85004" lon="4.67952">
        <ele>568</ele>
        <time>2019-11-12T09:25:05Z</time>
      </trkpt>
      <trkpt lat="44.85008" lon="4.67943">
        <ele>570</ele>
        <time>2019-11-12T09:25:18Z</time>
      </trkpt>
      <trkpt lat="44.85015" lon="4.67928">
        <ele>573</ele>
        <time>2019-11-12T09:25:33Z</time>
      </trkpt>
      <trkpt lat="44.85024" lon="4.67914">
        <ele>576</ele>
        <time>2019-11-12T09:25:48Z</time>
      </trkpt>
      <trkpt lat="44.85033" lon="4.67902">
        <ele>577</ele>
        <time>2019-11-12T09:26:02Z</time>
      </trkpt>
      <trkpt lat="44.85037" lon="4.67897">
        <ele>576</ele>
        <time>2019-11-12T09:26:16Z</time>
      </trkpt>
      <trkpt lat="44.85045" lon="4.67892">
        <ele>576</ele>
        <time>2019-11-12T09:26:29Z</time>
      </trkpt>
      <trkpt lat="44.85054" lon="4.67885">
        <ele>576</ele>
        <time>2019-11-12T09:26:44Z</time>
      </trkpt>
      <trkpt lat="44.85056" lon="4.67885">
        <ele>576</ele>
        <time>2019-11-12T09:26:57Z</time>
      </trkpt>
      <trkpt lat="44.85056" lon="4.67884">
        <ele>576</ele>
        <time>2019-11-12T09:26:58Z</time>
      </trkpt>
      <trkpt lat="44.85058" lon="4.67868">
        <ele>575</ele>
        <time>2019-11-12T09:27:14Z</time>
      </trkpt>
      <trkpt lat="44.85059" lon="4.67872">
        <ele>576</ele>
        <time>2019-11-12T09:27:24Z</time>
      </trkpt>
      <trkpt lat="44.85057" lon="4.6788">
        <ele>576</ele>
        <time>2019-11-12T09:27:37Z</time>
      </trkpt>
      <trkpt lat="44.85056" lon="4.67883">
        <ele>576</ele>
        <time>2019-11-12T09:27:39Z</time>
      </trkpt>
      <trkpt lat="44.85054" lon="4.67891">
        <ele>576</ele>
        <time>2019-11-12T09:27:45Z</time>
      </trkpt>
      <trkpt lat="44.85052" lon="4.6791">
        <ele>577</ele>
        <time>2019-11-12T09:28:00Z</time>
      </trkpt>
      <trkpt lat="44.85049" lon="4.67928">
        <ele>578</ele>
        <time>2019-11-12T09:28:14Z</time>
      </trkpt>
      <trkpt lat="44.85047" lon="4.67948">
        <ele>579</ele>
        <time>2019-11-12T09:28:29Z</time>
      </trkpt>
      <trkpt lat="44.85043" lon="4.67965">
        <ele>581</ele>
        <time>2019-11-12T09:28:44Z</time>
      </trkpt>
      <trkpt lat="44.85044" lon="4.67977">
        <ele>581</ele>
        <time>2019-11-12T09:28:58Z</time>
      </trkpt>
      <trkpt lat="44.85044" lon="4.67987">
        <ele>582</ele>
        <time>2019-11-12T09:29:12Z</time>
      </trkpt>
      <trkpt lat="44.85044" lon="4.67985">
        <ele>582</ele>
        <time>2019-11-12T09:29:24Z</time>
      </trkpt>
      <trkpt lat="44.85043" lon="4.67969">
        <ele>581</ele>
        <time>2019-11-12T09:29:42Z</time>
      </trkpt>
      <trkpt lat="44.85044" lon="4.67967">
        <ele>581</ele>
        <time>2019-11-12T09:29:44Z</time>
      </trkpt>
      <trkpt lat="44.85047" lon="4.67946">
        <ele>579</ele>
        <time>2019-11-12T09:29:59Z</time>
      </trkpt>
      <trkpt lat="44.85052" lon="4.67918">
        <ele>577</ele>
        <time>2019-11-12T09:30:17Z</time>
      </trkpt>
      <trkpt lat="44.85055" lon="4.6789">
        <ele>576</ele>
        <time>2019-11-12T09:30:35Z</time>
      </trkpt>
      <trkpt lat="44.85064" lon="4.67862">
        <ele>576</ele>
        <time>2019-11-12T09:30:54Z</time>
      </trkpt>
      <trkpt lat="44.85071" lon="4.67834">
        <ele>577</ele>
        <time>2019-11-12T09:31:12Z</time>
      </trkpt>
      <trkpt lat="44.85074" lon="4.6783">
        <ele>577</ele>
        <time>2019-11-12T09:31:19Z</time>
      </trkpt>
      <trkpt lat="44.85075" lon="4.67832">
        <ele>577</ele>
        <time>2019-11-12T09:31:36Z</time>
      </trkpt>
      <trkpt lat="44.85077" lon="4.67833">
        <ele>578</ele>
        <time>2019-11-12T09:31:58Z</time>
      </trkpt>
      <trkpt lat="44.85076" lon="4.67832">
        <ele>578</ele>
        <time>2019-11-12T09:32:31Z</time>
      </trkpt>
      <trkpt lat="44.85077" lon="4.67829">
        <ele>578</ele>
        <time>2019-11-12T09:32:42Z</time>
      </trkpt>
      <trkpt lat="44.85083" lon="4.67827">
        <ele>579</ele>
        <time>2019-11-12T09:32:49Z</time>
      </trkpt>
      <trkpt lat="44.85106" lon="4.67828">
        <ele>579</ele>
        <time>2019-11-12T09:33:08Z</time>
      </trkpt>
      <trkpt lat="44.85111" lon="4.67826">
        <ele>579</ele>
        <time>2019-11-12T09:33:25Z</time>
      </trkpt>
      <trkpt lat="44.85112" lon="4.67826">
        <ele>579</ele>
        <time>2019-11-12T09:33:59Z</time>
      </trkpt>
      <trkpt lat="44.85117" lon="4.67824">
        <ele>578</ele>
        <time>2019-11-12T09:34:10Z</time>
      </trkpt>
      <trkpt lat="44.85136" lon="4.67821">
        <ele>575</ele>
        <time>2019-11-12T09:34:27Z</time>
      </trkpt>
      <trkpt lat="44.85155" lon="4.67818">
        <ele>573</ele>
        <time>2019-11-12T09:34:43Z</time>
      </trkpt>
      <trkpt lat="44.85185" lon="4.67818">
        <ele>567</ele>
        <time>2019-11-12T09:35:06Z</time>
      </trkpt>
      <trkpt lat="44.85206" lon="4.67807">
        <ele>565</ele>
        <time>2019-11-12T09:35:23Z</time>
      </trkpt>
      <trkpt lat="44.85225" lon="4.67799">
        <ele>564</ele>
        <time>2019-11-12T09:35:40Z</time>
      </trkpt>
      <trkpt lat="44.85247" lon="4.67785">
        <ele>568</ele>
        <time>2019-11-12T09:35:59Z</time>
      </trkpt>
      <trkpt lat="44.85267" lon="4.6778">
        <ele>569</ele>
        <time>2019-11-12T09:36:18Z</time>
      </trkpt>
      <trkpt lat="44.85287" lon="4.67782">
        <ele>568</ele>
        <time>2019-11-12T09:36:33Z</time>
      </trkpt>
      <trkpt lat="44.85307" lon="4.67791">
        <ele>565</ele>
        <time>2019-11-12T09:36:49Z</time>
      </trkpt>
      <trkpt lat="44.85326" lon="4.67801">
        <ele>562</ele>
        <time>2019-11-12T09:37:05Z</time>
      </trkpt>
      <trkpt lat="44.85345" lon="4.67809">
        <ele>560</ele>
        <time>2019-11-12T09:37:21Z</time>
      </trkpt>
      <trkpt lat="44.8536" lon="4.67814">
        <ele>560</ele>
        <time>2019-11-12T09:37:36Z</time>
      </trkpt>
      <trkpt lat="44.85371" lon="4.67813">
        <ele>559</ele>
        <time>2019-11-12T09:37:49Z</time>
      </trkpt>
      <trkpt lat="44.85377" lon="4.67811">
        <ele>560</ele>
        <time>2019-11-12T09:37:55Z</time>
      </trkpt>
      <trkpt lat="44.85394" lon="4.67801">
        <ele>562</ele>
        <time>2019-11-12T09:38:11Z</time>
      </trkpt>
      <trkpt lat="44.85411" lon="4.67791">
        <ele>565</ele>
        <time>2019-11-12T09:38:27Z</time>
      </trkpt>
      <trkpt lat="44.85432" lon="4.67787">
        <ele>566</ele>
        <time>2019-11-12T09:38:43Z</time>
      </trkpt>
      <trkpt lat="44.85433" lon="4.67787">
        <ele>566</ele>
        <time>2019-11-12T09:38:44Z</time>
      </trkpt>
      <trkpt lat="44.85457" lon="4.67798">
        <ele>564</ele>
        <time>2019-11-12T09:39:03Z</time>
      </trkpt>
      <trkpt lat="44.85473" lon="4.6781">
        <ele>562</ele>
        <time>2019-11-12T09:39:18Z</time>
      </trkpt>
      <trkpt lat="44.85486" lon="4.67819">
        <ele>561</ele>
        <time>2019-11-12T09:39:32Z</time>
      </trkpt>
      <trkpt lat="44.85502" lon="4.67825">
        <ele>562</ele>
        <time>2019-11-12T09:39:46Z</time>
      </trkpt>
      <trkpt lat="44.8552" lon="4.67826">
        <ele>562</ele>
        <time>2019-11-12T09:40:03Z</time>
      </trkpt>
      <trkpt lat="44.85529" lon="4.67826">
        <ele>563</ele>
        <time>2019-11-12T09:40:11Z</time>
      </trkpt>
      <trkpt lat="44.85542" lon="4.67822">
        <ele>565</ele>
        <time>2019-11-12T09:40:25Z</time>
      </trkpt>
      <trkpt lat="44.85555" lon="4.67817">
        <ele>568</ele>
        <time>2019-11-12T09:40:38Z</time>
      </trkpt>
      <trkpt lat="44.8557" lon="4.6781">
        <ele>570</ele>
        <time>2019-11-12T09:40:52Z</time>
      </trkpt>
      <trkpt lat="44.85583" lon="4.67805">
        <ele>572</ele>
        <time>2019-11-12T09:41:06Z</time>
      </trkpt>
      <trkpt lat="44.85601" lon="4.67795">
        <ele>576</ele>
        <time>2019-11-12T09:41:23Z</time>
      </trkpt>
      <trkpt lat="44.8562" lon="4.67794">
        <ele>577</ele>
        <time>2019-11-12T09:41:40Z</time>
      </trkpt>
      <trkpt lat="44.8564" lon="4.67792">
        <ele>578</ele>
        <time>2019-11-12T09:41:57Z</time>
      </trkpt>
      <trkpt lat="44.85659" lon="4.67791">
        <ele>581</ele>
        <time>2019-11-12T09:42:17Z</time>
      </trkpt>
      <trkpt lat="44.85677" lon="4.67796">
        <ele>581</ele>
        <time>2019-11-12T09:42:33Z</time>
      </trkpt>
      <trkpt lat="44.85695" lon="4.67799">
        <ele>583</ele>
        <time>2019-11-12T09:42:50Z</time>
      </trkpt>
      <trkpt lat="44.85711" lon="4.678">
        <ele>584</ele>
        <time>2019-11-12T09:43:07Z</time>
      </trkpt>
      <trkpt lat="44.85726" lon="4.678">
        <ele>586</ele>
        <time>2019-11-12T09:43:24Z</time>
      </trkpt>
      <trkpt lat="44.85744" lon="4.67803">
        <ele>587</ele>
        <time>2019-11-12T09:43:43Z</time>
      </trkpt>
      <trkpt lat="44.8576" lon="4.67802">
        <ele>590</ele>
        <time>2019-11-12T09:43:59Z</time>
      </trkpt>
      <trkpt lat="44.85775" lon="4.67799">
        <ele>592</ele>
        <time>2019-11-12T09:44:14Z</time>
      </trkpt>
      <trkpt lat="44.85793" lon="4.678">
        <ele>594</ele>
        <time>2019-11-12T09:44:32Z</time>
      </trkpt>
      <trkpt lat="44.85809" lon="4.67799">
        <ele>596</ele>
        <time>2019-11-12T09:44:50Z</time>
      </trkpt>
      <trkpt lat="44.85828" lon="4.678">
        <ele>598</ele>
        <time>2019-11-12T09:45:09Z</time>
      </trkpt>
      <trkpt lat="44.85843" lon="4.67805">
        <ele>598</ele>
        <time>2019-11-12T09:45:23Z</time>
      </trkpt>
      <trkpt lat="44.85856" lon="4.67805">
        <ele>600</ele>
        <time>2019-11-12T09:45:37Z</time>
      </trkpt>
      <trkpt lat="44.85871" lon="4.67808">
        <ele>602</ele>
        <time>2019-11-12T09:45:52Z</time>
      </trkpt>
      <trkpt lat="44.85884" lon="4.67812">
        <ele>602</ele>
        <time>2019-11-12T09:46:08Z</time>
      </trkpt>
      <trkpt lat="44.85894" lon="4.67811">
        <ele>604</ele>
        <time>2019-11-12T09:46:20Z</time>
      </trkpt>
      <trkpt lat="44.85914" lon="4.67815">
        <ele>606</ele>
        <time>2019-11-12T09:46:39Z</time>
      </trkpt>
      <trkpt lat="44.85936" lon="4.67815">
        <ele>611</ele>
        <time>2019-11-12T09:47:01Z</time>
      </trkpt>
      <trkpt lat="44.85954" lon="4.67819">
        <ele>614</ele>
        <time>2019-11-12T09:47:17Z</time>
      </trkpt>
      <trkpt lat="44.85971" lon="4.67823">
        <ele>616</ele>
        <time>2019-11-12T09:47:34Z</time>
      </trkpt>
      <trkpt lat="44.8599" lon="4.67825">
        <ele>620</ele>
        <time>2019-11-12T09:47:55Z</time>
      </trkpt>
      <trkpt lat="44.86008" lon="4.67828">
        <ele>624</ele>
        <time>2019-11-12T09:48:14Z</time>
      </trkpt>
      <trkpt lat="44.86024" lon="4.67834">
        <ele>626</ele>
        <time>2019-11-12T09:48:32Z</time>
      </trkpt>
      <trkpt lat="44.86039" lon="4.67841">
        <ele>628</ele>
        <time>2019-11-12T09:48:49Z</time>
      </trkpt>
      <trkpt lat="44.86056" lon="4.67847">
        <ele>631</ele>
        <time>2019-11-12T09:49:06Z</time>
      </trkpt>
      <trkpt lat="44.86071" lon="4.67853">
        <ele>634</ele>
        <time>2019-11-12T09:49:23Z</time>
      </trkpt>
      <trkpt lat="44.86092" lon="4.67867">
        <ele>637</ele>
        <time>2019-11-12T09:49:42Z</time>
      </trkpt>
      <trkpt lat="44.86106" lon="4.67877">
        <ele>640</ele>
        <time>2019-11-12T09:49:58Z</time>
      </trkpt>
      <trkpt lat="44.86123" lon="4.67887">
        <ele>641</ele>
        <time>2019-11-12T09:50:15Z</time>
      </trkpt>
      <trkpt lat="44.86136" lon="4.679">
        <ele>641</ele>
        <time>2019-11-12T09:50:32Z</time>
      </trkpt>
      <trkpt lat="44.86151" lon="4.6791">
        <ele>642</ele>
        <time>2019-11-12T09:50:48Z</time>
      </trkpt>
      <trkpt lat="44.86162" lon="4.67919">
        <ele>643</ele>
        <time>2019-11-12T09:51:04Z</time>
      </trkpt>
      <trkpt lat="44.86179" lon="4.67934">
        <ele>643</ele>
        <time>2019-11-12T09:51:21Z</time>
      </trkpt>
      <trkpt lat="44.86187" lon="4.67947">
        <ele>642</ele>
        <time>2019-11-12T09:51:37Z</time>
      </trkpt>
      <trkpt lat="44.86203" lon="4.67964">
        <ele>642</ele>
        <time>2019-11-12T09:51:53Z</time>
      </trkpt>
      <trkpt lat="44.86216" lon="4.67981">
        <ele>643</ele>
        <time>2019-11-12T09:52:08Z</time>
      </trkpt>
      <trkpt lat="44.86218" lon="4.67984">
        <ele>643</ele>
        <time>2019-11-12T09:52:11Z</time>
      </trkpt>
      <trkpt lat="44.86223" lon="4.6799">
        <ele>643</ele>
        <time>2019-11-12T09:52:17Z</time>
      </trkpt>
      <trkpt lat="44.8624" lon="4.67998">
        <ele>646</ele>
        <time>2019-11-12T09:52:33Z</time>
      </trkpt>
      <trkpt lat="44.86256" lon="4.67997">
        <ele>648</ele>
        <time>2019-11-12T09:52:48Z</time>
      </trkpt>
      <trkpt lat="44.86264" lon="4.67999">
        <ele>648</ele>
        <time>2019-11-12T09:53:01Z</time>
      </trkpt>
      <trkpt lat="44.86266" lon="4.68001">
        <ele>648</ele>
        <time>2019-11-12T09:53:13Z</time>
      </trkpt>
      <trkpt lat="44.86266" lon="4.68001">
        <ele>648</ele>
        <time>2019-11-12T09:53:25Z</time>
      </trkpt>
      <trkpt lat="44.86262" lon="4.68002">
        <ele>648</ele>
        <time>2019-11-12T09:53:34Z</time>
      </trkpt>
      <trkpt lat="44.86262" lon="4.68002">
        <ele>648</ele>
        <time>2019-11-12T09:53:50Z</time>
      </trkpt>
      <trkpt lat="44.86263" lon="4.68003">
        <ele>648</ele>
        <time>2019-11-12T09:54:12Z</time>
      </trkpt>
      <trkpt lat="44.86263" lon="4.68001">
        <ele>648</ele>
        <time>2019-11-12T09:54:29Z</time>
      </trkpt>
      <trkpt lat="44.86265" lon="4.68">
        <ele>648</ele>
        <time>2019-11-12T09:54:43Z</time>
      </trkpt>
      <trkpt lat="44.86264" lon="4.67999">
        <ele>648</ele>
        <time>2019-11-12T09:54:59Z</time>
      </trkpt>
      <trkpt lat="44.86261" lon="4.68">
        <ele>648</ele>
        <time>2019-11-12T09:55:16Z</time>
      </trkpt>
      <trkpt lat="44.86263" lon="4.67998">
        <ele>648</ele>
        <time>2019-11-12T09:55:38Z</time>
      </trkpt>
      <trkpt lat="44.86263" lon="4.68">
        <ele>648</ele>
        <time>2019-11-12T09:55:52Z</time>
      </trkpt>
      <trkpt lat="44.86262" lon="4.68001">
        <ele>648</ele>
        <time>2019-11-12T09:56:07Z</time>
      </trkpt>
      <trkpt lat="44.86263" lon="4.68">
        <ele>648</ele>
        <time>2019-11-12T09:56:30Z</time>
      </trkpt>
      <trkpt lat="44.86263" lon="4.68001">
        <ele>648</ele>
        <time>2019-11-12T09:56:54Z</time>
      </trkpt>
      <trkpt lat="44.86262" lon="4.68">
        <ele>648</ele>
        <time>2019-11-12T09:57:21Z</time>
      </trkpt>
      <trkpt lat="44.86266" lon="4.67999">
        <ele>648</ele>
        <time>2019-11-12T09:57:28Z</time>
      </trkpt>
      <trkpt lat="44.86278" lon="4.68011">
        <ele>648</ele>
        <time>2019-11-12T09:57:40Z</time>
      </trkpt>
      <trkpt lat="44.86284" lon="4.6802">
        <ele>647</ele>
        <time>2019-11-12T09:57:47Z</time>
      </trkpt>
      <trkpt lat="44.86298" lon="4.68046">
        <ele>649</ele>
        <time>2019-11-12T09:58:06Z</time>
      </trkpt>
      <trkpt lat="44.86299" lon="4.68048">
        <ele>649</ele>
        <time>2019-11-12T09:58:08Z</time>
      </trkpt>
      <trkpt lat="44.86305" lon="4.68054">
        <ele>650</ele>
        <time>2019-11-12T09:58:14Z</time>
      </trkpt>
      <trkpt lat="44.86319" lon="4.68058">
        <ele>650</ele>
        <time>2019-11-12T09:58:29Z</time>
      </trkpt>
      <trkpt lat="44.86337" lon="4.68065">
        <ele>650</ele>
        <time>2019-11-12T09:58:45Z</time>
      </trkpt>
      <trkpt lat="44.8636" lon="4.68071">
        <ele>648</ele>
        <time>2019-11-12T09:59:03Z</time>
      </trkpt>
      <trkpt lat="44.8638" lon="4.68074">
        <ele>647</ele>
        <time>2019-11-12T09:59:19Z</time>
      </trkpt>
      <trkpt lat="44.86401" lon="4.68076">
        <ele>646</ele>
        <time>2019-11-12T09:59:35Z</time>
      </trkpt>
      <trkpt lat="44.86422" lon="4.6808">
        <ele>645</ele>
        <time>2019-11-12T09:59:51Z</time>
      </trkpt>
      <trkpt lat="44.86442" lon="4.68081">
        <ele>644</ele>
        <time>2019-11-12T10:00:07Z</time>
      </trkpt>
      <trkpt lat="44.86469" lon="4.68082">
        <ele>642</ele>
        <time>2019-11-12T10:00:28Z</time>
      </trkpt>
      <trkpt lat="44.8649" lon="4.68082">
        <ele>641</ele>
        <time>2019-11-12T10:00:45Z</time>
      </trkpt>
      <trkpt lat="44.86508" lon="4.68086">
        <ele>640</ele>
        <time>2019-11-12T10:01:00Z</time>
      </trkpt>
      <trkpt lat="44.8653" lon="4.68094">
        <ele>639</ele>
        <time>2019-11-12T10:01:18Z</time>
      </trkpt>
      <trkpt lat="44.86551" lon="4.68102">
        <ele>640</ele>
        <time>2019-11-12T10:01:36Z</time>
      </trkpt>
      <trkpt lat="44.8657" lon="4.68114">
        <ele>642</ele>
        <time>2019-11-12T10:01:53Z</time>
      </trkpt>
      <trkpt lat="44.8658" lon="4.68119">
        <ele>643</ele>
        <time>2019-11-12T10:02:02Z</time>
      </trkpt>
      <trkpt lat="44.86587" lon="4.68123">
        <ele>643</ele>
        <time>2019-11-12T10:02:09Z</time>
      </trkpt>
      <trkpt lat="44.86603" lon="4.6813">
        <ele>644</ele>
        <time>2019-11-12T10:02:25Z</time>
      </trkpt>
      <trkpt lat="44.8662" lon="4.68133">
        <ele>644</ele>
        <time>2019-11-12T10:02:40Z</time>
      </trkpt>
      <trkpt lat="44.86631" lon="4.68132">
        <ele>644</ele>
        <time>2019-11-12T10:02:50Z</time>
      </trkpt>
      <trkpt lat="44.8665" lon="4.68132">
        <ele>643</ele>
        <time>2019-11-12T10:03:06Z</time>
      </trkpt>
      <trkpt lat="44.86667" lon="4.68135">
        <ele>642</ele>
        <time>2019-11-12T10:03:22Z</time>
      </trkpt>
      <trkpt lat="44.8668" lon="4.68153">
        <ele>642</ele>
        <time>2019-11-12T10:03:38Z</time>
      </trkpt>
      <trkpt lat="44.86682" lon="4.68153">
        <ele>641</ele>
        <time>2019-11-12T10:03:46Z</time>
      </trkpt>
      <trkpt lat="44.86672" lon="4.68145">
        <ele>642</ele>
        <time>2019-11-12T10:03:56Z</time>
      </trkpt>
      <trkpt lat="44.86655" lon="4.68135">
        <ele>643</ele>
        <time>2019-11-12T10:04:13Z</time>
      </trkpt>
      <trkpt lat="44.86645" lon="4.68147">
        <ele>645</ele>
        <time>2019-11-12T10:04:29Z</time>
      </trkpt>
      <trkpt lat="44.86644" lon="4.68151">
        <ele>646</ele>
        <time>2019-11-12T10:04:33Z</time>
      </trkpt>
      <trkpt lat="44.8664" lon="4.68162">
        <ele>647</ele>
        <time>2019-11-12T10:04:41Z</time>
      </trkpt>
      <trkpt lat="44.86633" lon="4.68168">
        <ele>648</ele>
        <time>2019-11-12T10:04:49Z</time>
      </trkpt>
      <trkpt lat="44.86622" lon="4.68164">
        <ele>648</ele>
        <time>2019-11-12T10:05:03Z</time>
      </trkpt>
      <trkpt lat="44.86626" lon="4.68152">
        <ele>647</ele>
        <time>2019-11-12T10:05:16Z</time>
      </trkpt>
      <trkpt lat="44.86632" lon="4.68142">
        <ele>645</ele>
        <time>2019-11-12T10:05:29Z</time>
      </trkpt>
      <trkpt lat="44.86635" lon="4.68142">
        <ele>645</ele>
        <time>2019-11-12T10:05:41Z</time>
      </trkpt>
      <trkpt lat="44.86632" lon="4.68132">
        <ele>644</ele>
        <time>2019-11-12T10:05:56Z</time>
      </trkpt>
      <trkpt lat="44.86608" lon="4.68131">
        <ele>644</ele>
        <time>2019-11-12T10:06:17Z</time>
      </trkpt>
      <trkpt lat="44.86589" lon="4.68126">
        <ele>644</ele>
        <time>2019-11-12T10:06:34Z</time>
      </trkpt>
      <trkpt lat="44.86564" lon="4.68111">
        <ele>642</ele>
        <time>2019-11-12T10:06:55Z</time>
      </trkpt>
      <trkpt lat="44.8654" lon="4.68097">
        <ele>640</ele>
        <time>2019-11-12T10:07:16Z</time>
      </trkpt>
      <trkpt lat="44.86522" lon="4.68089">
        <ele>639</ele>
        <time>2019-11-12T10:07:32Z</time>
      </trkpt>
      <trkpt lat="44.86505" lon="4.68084">
        <ele>640</ele>
        <time>2019-11-12T10:07:48Z</time>
      </trkpt>
      <trkpt lat="44.86479" lon="4.68081">
        <ele>641</ele>
        <time>2019-11-12T10:08:09Z</time>
      </trkpt>
      <trkpt lat="44.86455" lon="4.6808">
        <ele>643</ele>
        <time>2019-11-12T10:08:30Z</time>
      </trkpt>
      <trkpt lat="44.86436" lon="4.68079">
        <ele>644</ele>
        <time>2019-11-12T10:08:46Z</time>
      </trkpt>
      <trkpt lat="44.86423" lon="4.68078">
        <ele>644</ele>
        <time>2019-11-12T10:08:58Z</time>
      </trkpt>
      <trkpt lat="44.8641" lon="4.68076">
        <ele>645</ele>
        <time>2019-11-12T10:09:14Z</time>
      </trkpt>
      <trkpt lat="44.86408" lon="4.68074">
        <ele>645</ele>
        <time>2019-11-12T10:09:39Z</time>
      </trkpt>
      <trkpt lat="44.8639" lon="4.68072">
        <ele>646</ele>
        <time>2019-11-12T10:09:56Z</time>
      </trkpt>
      <trkpt lat="44.86371" lon="4.68072">
        <ele>647</ele>
        <time>2019-11-12T10:10:13Z</time>
      </trkpt>
      <trkpt lat="44.86363" lon="4.68072">
        <ele>648</ele>
        <time>2019-11-12T10:10:21Z</time>
      </trkpt>
      <trkpt lat="44.86341" lon="4.68065">
        <ele>649</ele>
        <time>2019-11-12T10:10:40Z</time>
      </trkpt>
      <trkpt lat="44.86321" lon="4.68059">
        <ele>650</ele>
        <time>2019-11-12T10:10:58Z</time>
      </trkpt>
      <trkpt lat="44.86304" lon="4.68055">
        <ele>650</ele>
        <time>2019-11-12T10:11:15Z</time>
      </trkpt>
      <trkpt lat="44.86304" lon="4.68058">
        <ele>650</ele>
        <time>2019-11-12T10:11:30Z</time>
      </trkpt>
      <trkpt lat="44.86301" lon="4.68057">
        <ele>650</ele>
        <time>2019-11-12T10:11:41Z</time>
      </trkpt>
      <trkpt lat="44.86299" lon="4.68051">
        <ele>649</ele>
        <time>2019-11-12T10:11:47Z</time>
      </trkpt>
      <trkpt lat="44.86285" lon="4.68025">
        <ele>647</ele>
        <time>2019-11-12T10:12:08Z</time>
      </trkpt>
      <trkpt lat="44.86269" lon="4.68004">
        <ele>648</ele>
        <time>2019-11-12T10:12:27Z</time>
      </trkpt>
      <trkpt lat="44.86256" lon="4.67996">
        <ele>648</ele>
        <time>2019-11-12T10:12:43Z</time>
      </trkpt>
      <trkpt lat="44.86252" lon="4.67995">
        <ele>648</ele>
        <time>2019-11-12T10:12:55Z</time>
      </trkpt>
      <trkpt lat="44.86245" lon="4.67996">
        <ele>647</ele>
        <time>2019-11-12T10:13:07Z</time>
      </trkpt>
      <trkpt lat="44.86234" lon="4.67996">
        <ele>645</ele>
        <time>2019-11-12T10:13:17Z</time>
      </trkpt>
      <trkpt lat="44.86215" lon="4.67974">
        <ele>643</ele>
        <time>2019-11-12T10:13:38Z</time>
      </trkpt>
      <trkpt lat="44.86206" lon="4.67963">
        <ele>643</ele>
        <time>2019-11-12T10:13:49Z</time>
      </trkpt>
      <trkpt lat="44.86199" lon="4.67955">
        <ele>643</ele>
        <time>2019-11-12T10:13:58Z</time>
      </trkpt>
      <trkpt lat="44.86185" lon="4.67941">
        <ele>643</ele>
        <time>2019-11-12T10:14:13Z</time>
      </trkpt>
      <trkpt lat="44.86172" lon="4.67927">
        <ele>643</ele>
        <time>2019-11-12T10:14:27Z</time>
      </trkpt>
      <trkpt lat="44.86155" lon="4.67913">
        <ele>642</ele>
        <time>2019-11-12T10:14:42Z</time>
      </trkpt>
      <trkpt lat="44.8614" lon="4.67905">
        <ele>641</ele>
        <time>2019-11-12T10:14:55Z</time>
      </trkpt>
      <trkpt lat="44.86124" lon="4.67891">
        <ele>641</ele>
        <time>2019-11-12T10:15:10Z</time>
      </trkpt>
      <trkpt lat="44.86112" lon="4.6788">
        <ele>641</ele>
        <time>2019-11-12T10:15:23Z</time>
      </trkpt>
      <trkpt lat="44.86093" lon="4.67868">
        <ele>638</ele>
        <time>2019-11-12T10:15:41Z</time>
      </trkpt>
      <trkpt lat="44.86076" lon="4.67853">
        <ele>636</ele>
        <time>2019-11-12T10:15:57Z</time>
      </trkpt>
      <trkpt lat="44.86057" lon="4.67844">
        <ele>632</ele>
        <time>2019-11-12T10:16:13Z</time>
      </trkpt>
      <trkpt lat="44.86046" lon="4.67839">
        <ele>630</ele>
        <time>2019-11-12T10:16:22Z</time>
      </trkpt>
      <trkpt lat="44.8603" lon="4.67831">
        <ele>629</ele>
        <time>2019-11-12T10:16:38Z</time>
      </trkpt>
      <trkpt lat="44.86015" lon="4.67826">
        <ele>626</ele>
        <time>2019-11-12T10:16:51Z</time>
      </trkpt>
      <trkpt lat="44.85997" lon="4.67824">
        <ele>623</ele>
        <time>2019-11-12T10:17:05Z</time>
      </trkpt>
      <trkpt lat="44.85992" lon="4.67824">
        <ele>621</ele>
        <time>2019-11-12T10:17:09Z</time>
      </trkpt>
      <trkpt lat="44.85972" lon="4.67823">
        <ele>616</ele>
        <time>2019-11-12T10:17:24Z</time>
      </trkpt>
      <trkpt lat="44.85954" lon="4.67821">
        <ele>613</ele>
        <time>2019-11-12T10:17:38Z</time>
      </trkpt>
      <trkpt lat="44.85938" lon="4.67817">
        <ele>611</ele>
        <time>2019-11-12T10:17:52Z</time>
      </trkpt>
      <trkpt lat="44.85922" lon="4.67813">
        <ele>609</ele>
        <time>2019-11-12T10:18:05Z</time>
      </trkpt>
      <trkpt lat="44.85905" lon="4.67806">
        <ele>609</ele>
        <time>2019-11-12T10:18:20Z</time>
      </trkpt>
      <trkpt lat="44.85886" lon="4.67802">
        <ele>607</ele>
        <time>2019-11-12T10:18:35Z</time>
      </trkpt>
      <trkpt lat="44.85874" lon="4.67802">
        <ele>605</ele>
        <time>2019-11-12T10:18:45Z</time>
      </trkpt>
      <trkpt lat="44.85857" lon="4.67801">
        <ele>602</ele>
        <time>2019-11-12T10:18:59Z</time>
      </trkpt>
      <trkpt lat="44.85837" lon="4.67798">
        <ele>600</ele>
        <time>2019-11-12T10:19:16Z</time>
      </trkpt>
      <trkpt lat="44.85835" lon="4.67798">
        <ele>599</ele>
        <time>2019-11-12T10:19:17Z</time>
      </trkpt>
      <trkpt lat="44.85827" lon="4.67799">
        <ele>598</ele>
        <time>2019-11-12T10:19:24Z</time>
      </trkpt>
      <trkpt lat="44.85804" lon="4.67799">
        <ele>596</ele>
        <time>2019-11-12T10:19:40Z</time>
      </trkpt>
      <trkpt lat="44.8579" lon="4.67798">
        <ele>594</ele>
        <time>2019-11-12T10:19:53Z</time>
      </trkpt>
      <trkpt lat="44.85775" lon="4.678">
        <ele>592</ele>
        <time>2019-11-12T10:20:05Z</time>
      </trkpt>
      <trkpt lat="44.85758" lon="4.67802">
        <ele>589</ele>
        <time>2019-11-12T10:20:18Z</time>
      </trkpt>
      <trkpt lat="44.85739" lon="4.67801">
        <ele>587</ele>
        <time>2019-11-12T10:20:33Z</time>
      </trkpt>
      <trkpt lat="44.85722" lon="4.67801">
        <ele>585</ele>
        <time>2019-11-12T10:20:47Z</time>
      </trkpt>
      <trkpt lat="44.857" lon="4.67799">
        <ele>583</ele>
        <time>2019-11-12T10:21:05Z</time>
      </trkpt>
      <trkpt lat="44.85682" lon="4.67797">
        <ele>582</ele>
        <time>2019-11-12T10:21:21Z</time>
      </trkpt>
      <trkpt lat="44.85667" lon="4.67793">
        <ele>581</ele>
        <time>2019-11-12T10:21:35Z</time>
      </trkpt>
      <trkpt lat="44.85647" lon="4.67791">
        <ele>580</ele>
        <time>2019-11-12T10:21:52Z</time>
      </trkpt>
      <trkpt lat="44.85629" lon="4.67792">
        <ele>578</ele>
        <time>2019-11-12T10:22:07Z</time>
      </trkpt>
      <trkpt lat="44.85615" lon="4.67794">
        <ele>577</ele>
        <time>2019-11-12T10:22:23Z</time>
      </trkpt>
      <trkpt lat="44.85598" lon="4.67796">
        <ele>576</ele>
        <time>2019-11-12T10:22:38Z</time>
      </trkpt>
      <trkpt lat="44.85585" lon="4.678">
        <ele>574</ele>
        <time>2019-11-12T10:22:50Z</time>
      </trkpt>
      <trkpt lat="44.85569" lon="4.6781">
        <ele>570</ele>
        <time>2019-11-12T10:23:05Z</time>
      </trkpt>
      <trkpt lat="44.85556" lon="4.67817">
        <ele>568</ele>
        <time>2019-11-12T10:23:17Z</time>
      </trkpt>
      <trkpt lat="44.85539" lon="4.6782">
        <ele>566</ele>
        <time>2019-11-12T10:23:31Z</time>
      </trkpt>
      <trkpt lat="44.85519" lon="4.67823">
        <ele>563</ele>
        <time>2019-11-12T10:23:47Z</time>
      </trkpt>
      <trkpt lat="44.85498" lon="4.67821">
        <ele>563</ele>
        <time>2019-11-12T10:24:04Z</time>
      </trkpt>
      <trkpt lat="44.85478" lon="4.6781">
        <ele>563</ele>
        <time>2019-11-12T10:24:21Z</time>
      </trkpt>
      <trkpt lat="44.85457" lon="4.67797">
        <ele>564</ele>
        <time>2019-11-12T10:24:39Z</time>
      </trkpt>
      <trkpt lat="44.85436" lon="4.67788">
        <ele>566</ele>
        <time>2019-11-12T10:24:56Z</time>
      </trkpt>
      <trkpt lat="44.85419" lon="4.6779">
        <ele>565</ele>
        <time>2019-11-12T10:25:12Z</time>
      </trkpt>
      <trkpt lat="44.85412" lon="4.67793">
        <ele>564</ele>
        <time>2019-11-12T10:25:19Z</time>
      </trkpt>
      <trkpt lat="44.85406" lon="4.67795">
        <ele>564</ele>
        <time>2019-11-12T10:25:25Z</time>
      </trkpt>
      <trkpt lat="44.85402" lon="4.67798">
        <ele>563</ele>
        <time>2019-11-12T10:25:30Z</time>
      </trkpt>
      <trkpt lat="44.85398" lon="4.678">
        <ele>562</ele>
        <time>2019-11-12T10:25:34Z</time>
      </trkpt>
      <trkpt lat="44.85394" lon="4.67802">
        <ele>562</ele>
        <time>2019-11-12T10:25:38Z</time>
      </trkpt>
      <trkpt lat="44.8538" lon="4.67808">
        <ele>561</ele>
        <time>2019-11-12T10:25:53Z</time>
      </trkpt>
      <trkpt lat="44.85371" lon="4.6781">
        <ele>560</ele>
        <time>2019-11-12T10:26:06Z</time>
      </trkpt>
      <trkpt lat="44.85356" lon="4.67811">
        <ele>560</ele>
        <time>2019-11-12T10:26:21Z</time>
      </trkpt>
      <trkpt lat="44.85349" lon="4.6781">
        <ele>560</ele>
        <time>2019-11-12T10:26:28Z</time>
      </trkpt>
      <trkpt lat="44.85343" lon="4.67808">
        <ele>561</ele>
        <time>2019-11-12T10:26:33Z</time>
      </trkpt>
      <trkpt lat="44.85324" lon="4.67799">
        <ele>563</ele>
        <time>2019-11-12T10:26:51Z</time>
      </trkpt>
      <trkpt lat="44.85305" lon="4.67788">
        <ele>566</ele>
        <time>2019-11-12T10:27:08Z</time>
      </trkpt>
      <trkpt lat="44.85287" lon="4.67779">
        <ele>569</ele>
        <time>2019-11-12T10:27:25Z</time>
      </trkpt>
      <trkpt lat="44.85267" lon="4.67778">
        <ele>570</ele>
        <time>2019-11-12T10:27:41Z</time>
      </trkpt>
      <trkpt lat="44.85256" lon="4.67779">
        <ele>570</ele>
        <time>2019-11-12T10:27:51Z</time>
      </trkpt>
      <trkpt lat="44.85247" lon="4.67781">
        <ele>569</ele>
        <time>2019-11-12T10:27:59Z</time>
      </trkpt>
      <trkpt lat="44.85223" lon="4.67797">
        <ele>565</ele>
        <time>2019-11-12T10:28:21Z</time>
      </trkpt>
      <trkpt lat="44.8522" lon="4.678">
        <ele>565</ele>
        <time>2019-11-12T10:28:24Z</time>
      </trkpt>
      <trkpt lat="44.85217" lon="4.67801">
        <ele>565</ele>
        <time>2019-11-12T10:28:27Z</time>
      </trkpt>
      <trkpt lat="44.852" lon="4.67812">
        <ele>565</ele>
        <time>2019-11-12T10:28:44Z</time>
      </trkpt>
      <trkpt lat="44.85181" lon="4.67817">
        <ele>568</ele>
        <time>2019-11-12T10:29:01Z</time>
      </trkpt>
      <trkpt lat="44.85161" lon="4.67818">
        <ele>572</ele>
        <time>2019-11-12T10:29:19Z</time>
      </trkpt>
      <trkpt lat="44.85146" lon="4.67818">
        <ele>574</ele>
        <time>2019-11-12T10:29:34Z</time>
      </trkpt>
      <trkpt lat="44.8514" lon="4.67818">
        <ele>575</ele>
        <time>2019-11-12T10:29:39Z</time>
      </trkpt>
      <trkpt lat="44.85123" lon="4.67822">
        <ele>577</ele>
        <time>2019-11-12T10:29:55Z</time>
      </trkpt>
      <trkpt lat="44.85117" lon="4.67822">
        <ele>578</ele>
        <time>2019-11-12T10:30:00Z</time>
      </trkpt>
      <trkpt lat="44.851" lon="4.67825">
        <ele>579</ele>
        <time>2019-11-12T10:30:16Z</time>
      </trkpt>
      <trkpt lat="44.85085" lon="4.67824">
        <ele>579</ele>
        <time>2019-11-12T10:30:32Z</time>
      </trkpt>
      <trkpt lat="44.85079" lon="4.67822">
        <ele>579</ele>
        <time>2019-11-12T10:30:39Z</time>
      </trkpt>
      <trkpt lat="44.85075" lon="4.67832">
        <ele>577</ele>
        <time>2019-11-12T10:30:58Z</time>
      </trkpt>
      <trkpt lat="44.85073" lon="4.67829">
        <ele>577</ele>
        <time>2019-11-12T10:31:14Z</time>
      </trkpt>
      <trkpt lat="44.85067" lon="4.67808">
        <ele>576</ele>
        <time>2019-11-12T10:31:30Z</time>
      </trkpt>
      <trkpt lat="44.85064" lon="4.67778">
        <ele>577</ele>
        <time>2019-11-12T10:31:49Z</time>
      </trkpt>
      <trkpt lat="44.85061" lon="4.67747">
        <ele>578</ele>
        <time>2019-11-12T10:32:07Z</time>
      </trkpt>
      <trkpt lat="44.85055" lon="4.67717">
        <ele>577</ele>
        <time>2019-11-12T10:32:25Z</time>
      </trkpt>
      <trkpt lat="44.85048" lon="4.67689">
        <ele>577</ele>
        <time>2019-11-12T10:32:43Z</time>
      </trkpt>
      <trkpt lat="44.85041" lon="4.67658">
        <ele>577</ele>
        <time>2019-11-12T10:33:02Z</time>
      </trkpt>
      <trkpt lat="44.85033" lon="4.6763">
        <ele>576</ele>
        <time>2019-11-12T10:33:20Z</time>
      </trkpt>
      <trkpt lat="44.85025" lon="4.67598">
        <ele>576</ele>
        <time>2019-11-12T10:33:39Z</time>
      </trkpt>
      <trkpt lat="44.85017" lon="4.67571">
        <ele>574</ele>
        <time>2019-11-12T10:33:56Z</time>
      </trkpt>
      <trkpt lat="44.85009" lon="4.67545">
        <ele>573</ele>
        <time>2019-11-12T10:34:13Z</time>
      </trkpt>
      <trkpt lat="44.84999" lon="4.67522">
        <ele>572</ele>
        <time>2019-11-12T10:34:29Z</time>
      </trkpt>
      <trkpt lat="44.84987" lon="4.67507">
        <ele>569</ele>
        <time>2019-11-12T10:34:45Z</time>
      </trkpt>
      <trkpt lat="44.84967" lon="4.67486">
        <ele>565</ele>
        <time>2019-11-12T10:35:05Z</time>
      </trkpt>
      <trkpt lat="44.84949" lon="4.67466">
        <ele>564</ele>
        <time>2019-11-12T10:35:24Z</time>
      </trkpt>
      <trkpt lat="44.84933" lon="4.6745">
        <ele>563</ele>
        <time>2019-11-12T10:35:40Z</time>
      </trkpt>
      <trkpt lat="44.84916" lon="4.67439">
        <ele>562</ele>
        <time>2019-11-12T10:35:55Z</time>
      </trkpt>
      <trkpt lat="44.84912" lon="4.6743">
        <ele>564</ele>
        <time>2019-11-12T10:36:01Z</time>
      </trkpt>
      <trkpt lat="44.84898" lon="4.67423">
        <ele>563</ele>
        <time>2019-11-12T10:36:17Z</time>
      </trkpt>
      <trkpt lat="44.84881" lon="4.67408">
        <ele>563</ele>
        <time>2019-11-12T10:36:35Z</time>
      </trkpt>
      <trkpt lat="44.84864" lon="4.67397">
        <ele>562</ele>
        <time>2019-11-12T10:36:51Z</time>
      </trkpt>
      <trkpt lat="44.84845" lon="4.67388">
        <ele>560</ele>
        <time>2019-11-12T10:37:09Z</time>
      </trkpt>
      <trkpt lat="44.84829" lon="4.6738">
        <ele>559</ele>
        <time>2019-11-12T10:37:24Z</time>
      </trkpt>
      <trkpt lat="44.84813" lon="4.67377">
        <ele>555</ele>
        <time>2019-11-12T10:37:41Z</time>
      </trkpt>
      <trkpt lat="44.84793" lon="4.67369">
        <ele>553</ele>
        <time>2019-11-12T10:37:59Z</time>
      </trkpt>
      <trkpt lat="44.84775" lon="4.67362">
        <ele>550</ele>
        <time>2019-11-12T10:38:15Z</time>
      </trkpt>
      <trkpt lat="44.84765" lon="4.67356">
        <ele>548</ele>
        <time>2019-11-12T10:38:25Z</time>
      </trkpt>
      <trkpt lat="44.84742" lon="4.67338">
        <ele>546</ele>
        <time>2019-11-12T10:38:47Z</time>
      </trkpt>
      <trkpt lat="44.84723" lon="4.67321">
        <ele>545</ele>
        <time>2019-11-12T10:39:05Z</time>
      </trkpt>
      <trkpt lat="44.84711" lon="4.67307">
        <ele>546</ele>
        <time>2019-11-12T10:39:20Z</time>
      </trkpt>
      <trkpt lat="44.84698" lon="4.67295">
        <ele>545</ele>
        <time>2019-11-12T10:39:34Z</time>
      </trkpt>
      <trkpt lat="44.84685" lon="4.67283">
        <ele>545</ele>
        <time>2019-11-12T10:39:48Z</time>
      </trkpt>
      <trkpt lat="44.8468" lon="4.67277">
        <ele>545</ele>
        <time>2019-11-12T10:39:53Z</time>
      </trkpt>
      <trkpt lat="44.84669" lon="4.67263">
        <ele>547</ele>
        <time>2019-11-12T10:40:06Z</time>
      </trkpt>
      <trkpt lat="44.84655" lon="4.67254">
        <ele>546</ele>
        <time>2019-11-12T10:40:21Z</time>
      </trkpt>
      <trkpt lat="44.84639" lon="4.67251">
        <ele>542</ele>
        <time>2019-11-12T10:40:37Z</time>
      </trkpt>
      <trkpt lat="44.84623" lon="4.67246">
        <ele>541</ele>
        <time>2019-11-12T10:40:53Z</time>
      </trkpt>
      <trkpt lat="44.84613" lon="4.67243">
        <ele>540</ele>
        <time>2019-11-12T10:41:06Z</time>
      </trkpt>
      <trkpt lat="44.84597" lon="4.6724">
        <ele>539</ele>
        <time>2019-11-12T10:41:21Z</time>
      </trkpt>
      <trkpt lat="44.84584" lon="4.67244">
        <ele>536</ele>
        <time>2019-11-12T10:41:35Z</time>
      </trkpt>
      <trkpt lat="44.84574" lon="4.67245">
        <ele>534</ele>
        <time>2019-11-12T10:41:53Z</time>
      </trkpt>
      <trkpt lat="44.8456" lon="4.67244">
        <ele>532</ele>
        <time>2019-11-12T10:42:08Z</time>
      </trkpt>
      <trkpt lat="44.84541" lon="4.67242">
        <ele>529</ele>
        <time>2019-11-12T10:42:25Z</time>
      </trkpt>
      <trkpt lat="44.84521" lon="4.67238">
        <ele>527</ele>
        <time>2019-11-12T10:42:41Z</time>
      </trkpt>
      <trkpt lat="44.84506" lon="4.67228">
        <ele>528</ele>
        <time>2019-11-12T10:42:56Z</time>
      </trkpt>
      <trkpt lat="44.84491" lon="4.67222">
        <ele>527</ele>
        <time>2019-11-12T10:43:10Z</time>
      </trkpt>
      <trkpt lat="44.84469" lon="4.67218">
        <ele>524</ele>
        <time>2019-11-12T10:43:29Z</time>
      </trkpt>
      <trkpt lat="44.84456" lon="4.67216">
        <ele>521</ele>
        <time>2019-11-12T10:43:43Z</time>
      </trkpt>
      <trkpt lat="44.84448" lon="4.67213">
        <ele>521</ele>
        <time>2019-11-12T10:43:55Z</time>
      </trkpt>
      <trkpt lat="44.84446" lon="4.67213">
        <ele>521</ele>
        <time>2019-11-12T10:43:57Z</time>
      </trkpt>
      <trkpt lat="44.84428" lon="4.67211">
        <ele>517</ele>
        <time>2019-11-12T10:44:15Z</time>
      </trkpt>
      <trkpt lat="44.84415" lon="4.67207">
        <ele>516</ele>
        <time>2019-11-12T10:44:30Z</time>
      </trkpt>
      <trkpt lat="44.84402" lon="4.67205">
        <ele>513</ele>
        <time>2019-11-12T10:44:43Z</time>
      </trkpt>
      <trkpt lat="44.84393" lon="4.67204">
        <ele>512</ele>
        <time>2019-11-12T10:44:59Z</time>
      </trkpt>
      <trkpt lat="44.84385" lon="4.67203">
        <ele>510</ele>
        <time>2019-11-12T10:45:13Z</time>
      </trkpt>
      <trkpt lat="44.84377" lon="4.67199">
        <ele>509</ele>
        <time>2019-11-12T10:45:21Z</time>
      </trkpt>
      <trkpt lat="44.8436" lon="4.67192">
        <ele>507</ele>
        <time>2019-11-12T10:45:38Z</time>
      </trkpt>
      <trkpt lat="44.84349" lon="4.67189">
        <ele>505</ele>
        <time>2019-11-12T10:45:50Z</time>
      </trkpt>
      <trkpt lat="44.84344" lon="4.67186">
        <ele>504</ele>
        <time>2019-11-12T10:45:56Z</time>
      </trkpt>
      <trkpt lat="44.84338" lon="4.67179">
        <ele>504</ele>
        <time>2019-11-12T10:46:06Z</time>
      </trkpt>
      <trkpt lat="44.84323" lon="4.67166">
        <ele>504</ele>
        <time>2019-11-12T10:46:24Z</time>
      </trkpt>
      <trkpt lat="44.84314" lon="4.67162">
        <ele>503</ele>
        <time>2019-11-12T10:46:38Z</time>
      </trkpt>
      <trkpt lat="44.84309" lon="4.67161">
        <ele>502</ele>
        <time>2019-11-12T10:46:43Z</time>
      </trkpt>
      <trkpt lat="44.843" lon="4.67162">
        <ele>500</ele>
        <time>2019-11-12T10:46:52Z</time>
      </trkpt>
      <trkpt lat="44.84292" lon="4.67166">
        <ele>497</ele>
        <time>2019-11-12T10:47:08Z</time>
      </trkpt>
      <trkpt lat="44.84283" lon="4.67172">
        <ele>494</ele>
        <time>2019-11-12T10:47:23Z</time>
      </trkpt>
      <trkpt lat="44.84272" lon="4.67178">
        <ele>491</ele>
        <time>2019-11-12T10:47:34Z</time>
      </trkpt>
      <trkpt lat="44.84263" lon="4.67172">
        <ele>493</ele>
        <time>2019-11-12T10:47:47Z</time>
      </trkpt>
      <trkpt lat="44.84256" lon="4.67173">
        <ele>492</ele>
        <time>2019-11-12T10:47:59Z</time>
      </trkpt>
      <trkpt lat="44.84246" lon="4.67166">
        <ele>494</ele>
        <time>2019-11-12T10:48:09Z</time>
      </trkpt>
      <trkpt lat="44.84239" lon="4.67161">
        <ele>495</ele>
        <time>2019-11-12T10:48:16Z</time>
      </trkpt>
      <trkpt lat="44.84236" lon="4.67156">
        <ele>496</ele>
        <time>2019-11-12T10:48:20Z</time>
      </trkpt>
      <trkpt lat="44.84222" lon="4.67142">
        <ele>498</ele>
        <time>2019-11-12T10:48:36Z</time>
      </trkpt>
      <trkpt lat="44.84213" lon="4.67126">
        <ele>499</ele>
        <time>2019-11-12T10:48:51Z</time>
      </trkpt>
      <trkpt lat="44.84212" lon="4.67117">
        <ele>501</ele>
        <time>2019-11-12T10:49:04Z</time>
      </trkpt>
      <trkpt lat="44.8422" lon="4.67118">
        <ele>502</ele>
        <time>2019-11-12T10:49:16Z</time>
      </trkpt>
      <trkpt lat="44.84231" lon="4.67116">
        <ele>504</ele>
        <time>2019-11-12T10:49:30Z</time>
      </trkpt>
      <trkpt lat="44.84238" lon="4.67112">
        <ele>506</ele>
        <time>2019-11-12T10:49:41Z</time>
      </trkpt>
      <trkpt lat="44.84247" lon="4.67113">
        <ele>506</ele>
        <time>2019-11-12T10:49:55Z</time>
      </trkpt>
      <trkpt lat="44.8426" lon="4.67113">
        <ele>508</ele>
        <time>2019-11-12T10:50:12Z</time>
      </trkpt>
      <trkpt lat="44.8427" lon="4.67103">
        <ele>509</ele>
        <time>2019-11-12T10:50:28Z</time>
      </trkpt>
      <trkpt lat="44.84282" lon="4.67099">
        <ele>510</ele>
        <time>2019-11-12T10:50:42Z</time>
      </trkpt>
      <trkpt lat="44.84293" lon="4.67096">
        <ele>512</ele>
        <time>2019-11-12T10:50:55Z</time>
      </trkpt>
      <trkpt lat="44.84298" lon="4.67095">
        <ele>513</ele>
        <time>2019-11-12T10:51:00Z</time>
      </trkpt>
      <trkpt lat="44.84305" lon="4.67086">
        <ele>514</ele>
        <time>2019-11-12T10:51:14Z</time>
      </trkpt>
      <trkpt lat="44.84311" lon="4.67075">
        <ele>516</ele>
        <time>2019-11-12T10:51:28Z</time>
      </trkpt>
      <trkpt lat="44.84321" lon="4.67065">
        <ele>519</ele>
        <time>2019-11-12T10:51:43Z</time>
      </trkpt>
      <trkpt lat="44.84327" lon="4.67054">
        <ele>520</ele>
        <time>2019-11-12T10:51:57Z</time>
      </trkpt>
      <trkpt lat="44.84335" lon="4.67046">
        <ele>522</ele>
        <time>2019-11-12T10:52:11Z</time>
      </trkpt>
      <trkpt lat="44.84343" lon="4.67037">
        <ele>525</ele>
        <time>2019-11-12T10:52:26Z</time>
      </trkpt>
      <trkpt lat="44.84351" lon="4.67031">
        <ele>528</ele>
        <time>2019-11-12T10:52:39Z</time>
      </trkpt>
      <trkpt lat="44.84362" lon="4.67025">
        <ele>531</ele>
        <time>2019-11-12T10:52:52Z</time>
      </trkpt>
      <trkpt lat="44.84374" lon="4.67015">
        <ele>534</ele>
        <time>2019-11-12T10:53:08Z</time>
      </trkpt>
      <trkpt lat="44.84383" lon="4.67005">
        <ele>537</ele>
        <time>2019-11-12T10:53:21Z</time>
      </trkpt>
      <trkpt lat="44.84388" lon="4.66993">
        <ele>538</ele>
        <time>2019-11-12T10:53:39Z</time>
      </trkpt>
      <trkpt lat="44.84393" lon="4.66986">
        <ele>539</ele>
        <time>2019-11-12T10:53:53Z</time>
      </trkpt>
      <trkpt lat="44.84396" lon="4.66977">
        <ele>539</ele>
        <time>2019-11-12T10:54:05Z</time>
      </trkpt>
      <trkpt lat="44.84402" lon="4.66964">
        <ele>541</ele>
        <time>2019-11-12T10:54:19Z</time>
      </trkpt>
      <trkpt lat="44.84408" lon="4.66953">
        <ele>543</ele>
        <time>2019-11-12T10:54:33Z</time>
      </trkpt>
      <trkpt lat="44.84415" lon="4.66942">
        <ele>545</ele>
        <time>2019-11-12T10:54:48Z</time>
      </trkpt>
      <trkpt lat="44.8442" lon="4.66931">
        <ele>547</ele>
        <time>2019-11-12T10:55:00Z</time>
      </trkpt>
      <trkpt lat="44.84422" lon="4.6692">
        <ele>547</ele>
        <time>2019-11-12T10:55:08Z</time>
      </trkpt>
      <trkpt lat="44.84424" lon="4.66908">
        <ele>547</ele>
        <time>2019-11-12T10:55:16Z</time>
      </trkpt>
      <trkpt lat="44.84426" lon="4.66889">
        <ele>546</ele>
        <time>2019-11-12T10:55:31Z</time>
      </trkpt>
      <trkpt lat="44.84432" lon="4.66867">
        <ele>548</ele>
        <time>2019-11-12T10:55:48Z</time>
      </trkpt>
      <trkpt lat="44.84433" lon="4.66863">
        <ele>549</ele>
        <time>2019-11-12T10:55:51Z</time>
      </trkpt>
      <trkpt lat="44.84439" lon="4.66842">
        <ele>549</ele>
        <time>2019-11-12T10:56:06Z</time>
      </trkpt>
      <trkpt lat="44.84443" lon="4.66822">
        <ele>547</ele>
        <time>2019-11-12T10:56:22Z</time>
      </trkpt>
      <trkpt lat="44.84453" lon="4.6681">
        <ele>548</ele>
        <time>2019-11-12T10:56:36Z</time>
      </trkpt>
      <trkpt lat="44.84458" lon="4.66807">
        <ele>550</ele>
        <time>2019-11-12T10:56:43Z</time>
      </trkpt>
      <trkpt lat="44.84471" lon="4.668">
        <ele>555</ele>
        <time>2019-11-12T10:56:58Z</time>
      </trkpt>
      <trkpt lat="44.84473" lon="4.66799">
        <ele>555</ele>
        <time>2019-11-12T10:57:00Z</time>
      </trkpt>
      <trkpt lat="44.84486" lon="4.66789">
        <ele>558</ele>
        <time>2019-11-12T10:57:17Z</time>
      </trkpt>
      <trkpt lat="44.84492" lon="4.66787">
        <ele>560</ele>
        <time>2019-11-12T10:57:31Z</time>
      </trkpt>
      <trkpt lat="44.84503" lon="4.66782">
        <ele>563</ele>
        <time>2019-11-12T10:57:47Z</time>
      </trkpt>
      <trkpt lat="44.84516" lon="4.66775">
        <ele>565</ele>
        <time>2019-11-12T10:58:02Z</time>
      </trkpt>
      <trkpt lat="44.84524" lon="4.66767">
        <ele>566</ele>
        <time>2019-11-12T10:58:15Z</time>
      </trkpt>
      <trkpt lat="44.8453" lon="4.66754">
        <ele>563</ele>
        <time>2019-11-12T10:58:27Z</time>
      </trkpt>
      <trkpt lat="44.84541" lon="4.66745">
        <ele>565</ele>
        <time>2019-11-12T10:58:40Z</time>
      </trkpt>
      <trkpt lat="44.84542" lon="4.66744">
        <ele>565</ele>
        <time>2019-11-12T10:58:41Z</time>
      </trkpt>
      <trkpt lat="44.84556" lon="4.66733">
        <ele>567</ele>
        <time>2019-11-12T10:58:57Z</time>
      </trkpt>
      <trkpt lat="44.84558" lon="4.6673">
        <ele>567</ele>
        <time>2019-11-12T10:59:00Z</time>
      </trkpt>
      <trkpt lat="44.84567" lon="4.66718">
        <ele>567</ele>
        <time>2019-11-12T10:59:14Z</time>
      </trkpt>
      <trkpt lat="44.84568" lon="4.66717">
        <ele>567</ele>
        <time>2019-11-12T10:59:15Z</time>
      </trkpt>
      <trkpt lat="44.8458" lon="4.66709">
        <ele>568</ele>
        <time>2019-11-12T10:59:29Z</time>
      </trkpt>
      <trkpt lat="44.84591" lon="4.66703">
        <ele>570</ele>
        <time>2019-11-12T10:59:42Z</time>
      </trkpt>
      <trkpt lat="44.84594" lon="4.667">
        <ele>570</ele>
        <time>2019-11-12T10:59:46Z</time>
      </trkpt>
      <trkpt lat="44.84607" lon="4.66689">
        <ele>570</ele>
        <time>2019-11-12T11:00:01Z</time>
      </trkpt>
      <trkpt lat="44.84618" lon="4.66677">
        <ele>570</ele>
        <time>2019-11-12T11:00:15Z</time>
      </trkpt>
      <trkpt lat="44.84625" lon="4.66672">
        <ele>570</ele>
        <time>2019-11-12T11:00:28Z</time>
      </trkpt>
      <trkpt lat="44.84627" lon="4.66682">
        <ele>574</ele>
        <time>2019-11-12T11:00:42Z</time>
      </trkpt>
      <trkpt lat="44.84627" lon="4.66682">
        <ele>574</ele>
        <time>2019-11-12T11:00:57Z</time>
      </trkpt>
      <trkpt lat="44.84624" lon="4.66681">
        <ele>573</ele>
        <time>2019-11-12T11:01:19Z</time>
      </trkpt>
      <trkpt lat="44.84627" lon="4.66681">
        <ele>574</ele>
        <time>2019-11-12T11:01:32Z</time>
      </trkpt>
      <trkpt lat="44.84634" lon="4.66678">
        <ele>575</ele>
        <time>2019-11-12T11:01:41Z</time>
      </trkpt>
      <trkpt lat="44.84635" lon="4.66676">
        <ele>575</ele>
        <time>2019-11-12T11:02:00Z</time>
      </trkpt>
      <trkpt lat="44.84635" lon="4.66676">
        <ele>575</ele>
        <time>2019-11-12T11:02:16Z</time>
      </trkpt>
      <trkpt lat="44.84627" lon="4.66683">
        <ele>574</ele>
        <time>2019-11-12T11:02:30Z</time>
      </trkpt>
      <trkpt lat="44.84626" lon="4.66684">
        <ele>574</ele>
        <time>2019-11-12T11:02:45Z</time>
      </trkpt>
      <trkpt lat="44.84625" lon="4.66684">
        <ele>574</ele>
        <time>2019-11-12T11:02:59Z</time>
      </trkpt>
      <trkpt lat="44.84625" lon="4.66683">
        <ele>574</ele>
        <time>2019-11-12T11:03:14Z</time>
      </trkpt>
      <trkpt lat="44.84625" lon="4.66682">
        <ele>573</ele>
        <time>2019-11-12T11:03:40Z</time>
      </trkpt>
      <trkpt lat="44.84626" lon="4.66682">
        <ele>574</ele>
        <time>2019-11-12T11:04:01Z</time>
      </trkpt>
      <trkpt lat="44.84625" lon="4.6668">
        <ele>573</ele>
        <time>2019-11-12T11:04:25Z</time>
      </trkpt>
      <trkpt lat="44.84625" lon="4.66682">
        <ele>573</ele>
        <time>2019-11-12T11:04:46Z</time>
      </trkpt>
      <trkpt lat="44.84624" lon="4.66682">
        <ele>573</ele>
        <time>2019-11-12T11:05:02Z</time>
      </trkpt>
      <trkpt lat="44.84624" lon="4.66683">
        <ele>573</ele>
        <time>2019-11-12T11:05:25Z</time>
      </trkpt>
      <trkpt lat="44.84625" lon="4.66685">
        <ele>574</ele>
        <time>2019-11-12T11:05:45Z</time>
      </trkpt>
      <trkpt lat="44.84626" lon="4.66683">
        <ele>574</ele>
        <time>2019-11-12T11:06:15Z</time>
      </trkpt>
      <trkpt lat="44.84627" lon="4.66682">
        <ele>574</ele>
        <time>2019-11-12T11:06:41Z</time>
      </trkpt>
      <trkpt lat="44.84625" lon="4.66682">
        <ele>573</ele>
        <time>2019-11-12T11:07:08Z</time>
      </trkpt>
      <trkpt lat="44.84623" lon="4.66683">
        <ele>573</ele>
        <time>2019-11-12T11:07:30Z</time>
      </trkpt>
      <trkpt lat="44.84623" lon="4.66683">
        <ele>573</ele>
        <time>2019-11-12T11:07:52Z</time>
      </trkpt>
      <trkpt lat="44.84626" lon="4.66683">
        <ele>574</ele>
        <time>2019-11-12T11:08:17Z</time>
      </trkpt>
      <trkpt lat="44.84625" lon="4.66683">
        <ele>574</ele>
        <time>2019-11-12T11:08:35Z</time>
      </trkpt>
      <trkpt lat="44.84624" lon="4.66683">
        <ele>574</ele>
        <time>2019-11-12T11:08:58Z</time>
      </trkpt>
      <trkpt lat="44.84626" lon="4.66682">
        <ele>574</ele>
        <time>2019-11-12T11:09:27Z</time>
      </trkpt>
      <trkpt lat="44.84627" lon="4.66682">
        <ele>574</ele>
        <time>2019-11-12T11:09:54Z</time>
      </trkpt>
      <trkpt lat="44.84625" lon="4.66681">
        <ele>573</ele>
        <time>2019-11-12T11:10:15Z</time>
      </trkpt>
      <trkpt lat="44.84626" lon="4.66681">
        <ele>573</ele>
        <time>2019-11-12T11:10:43Z</time>
      </trkpt>
      <trkpt lat="44.84626" lon="4.66681">
        <ele>573</ele>
        <time>2019-11-12T11:11:06Z</time>
      </trkpt>
      <trkpt lat="44.84624" lon="4.66681">
        <ele>573</ele>
        <time>2019-11-12T11:11:33Z</time>
      </trkpt>
      <trkpt lat="44.84626" lon="4.66683">
        <ele>574</ele>
        <time>2019-11-12T11:12:00Z</time>
      </trkpt>
      <trkpt lat="44.84625" lon="4.66681">
        <ele>573</ele>
        <time>2019-11-12T11:12:24Z</time>
      </trkpt>
      <trkpt lat="44.84625" lon="4.66681">
        <ele>573</ele>
        <time>2019-11-12T11:12:44Z</time>
      </trkpt>
      <trkpt lat="44.84628" lon="4.66682">
        <ele>574</ele>
        <time>2019-11-12T11:13:10Z</time>
      </trkpt>
      <trkpt lat="44.84626" lon="4.66681">
        <ele>573</ele>
        <time>2019-11-12T11:13:32Z</time>
      </trkpt>
      <trkpt lat="44.84626" lon="4.66682">
        <ele>574</ele>
        <time>2019-11-12T11:14:00Z</time>
      </trkpt>
      <trkpt lat="44.84624" lon="4.66681">
        <ele>573</ele>
        <time>2019-11-12T11:14:26Z</time>
      </trkpt>
      <trkpt lat="44.84626" lon="4.66681">
        <ele>573</ele>
        <time>2019-11-12T11:14:50Z</time>
      </trkpt>
      <trkpt lat="44.84626" lon="4.66682">
        <ele>574</ele>
        <time>2019-11-12T11:15:11Z</time>
      </trkpt>
      <trkpt lat="44.84625" lon="4.66682">
        <ele>574</ele>
        <time>2019-11-12T11:15:42Z</time>
      </trkpt>
      <trkpt lat="44.84628" lon="4.66684">
        <ele>575</ele>
        <time>2019-11-12T11:16:09Z</time>
      </trkpt>
      <trkpt lat="44.84627" lon="4.66687">
        <ele>575</ele>
        <time>2019-11-12T11:16:36Z</time>
      </trkpt>
      <trkpt lat="44.84627" lon="4.66686">
        <ele>575</ele>
        <time>2019-11-12T11:17:09Z</time>
      </trkpt>
      <trkpt lat="44.84626" lon="4.66684">
        <ele>574</ele>
        <time>2019-11-12T11:17:36Z</time>
      </trkpt>
      <trkpt lat="44.84625" lon="4.66683">
        <ele>574</ele>
        <time>2019-11-12T11:18:01Z</time>
      </trkpt>
      <trkpt lat="44.84625" lon="4.66684">
        <ele>574</ele>
        <time>2019-11-12T11:18:27Z</time>
      </trkpt>
      <trkpt lat="44.84625" lon="4.66683">
        <ele>574</ele>
        <time>2019-11-12T11:18:52Z</time>
      </trkpt>
      <trkpt lat="44.84626" lon="4.66685">
        <ele>575</ele>
        <time>2019-11-12T11:19:17Z</time>
      </trkpt>
      <trkpt lat="44.84624" lon="4.66683">
        <ele>573</ele>
        <time>2019-11-12T11:19:50Z</time>
      </trkpt>
      <trkpt lat="44.84624" lon="4.66682">
        <ele>573</ele>
        <time>2019-11-12T11:20:15Z</time>
      </trkpt>
      <trkpt lat="44.84625" lon="4.66683">
        <ele>574</ele>
        <time>2019-11-12T11:20:47Z</time>
      </trkpt>
      <trkpt lat="44.84627" lon="4.66683">
        <ele>574</ele>
        <time>2019-11-12T11:21:19Z</time>
      </trkpt>
      <trkpt lat="44.84625" lon="4.66685">
        <ele>574</ele>
        <time>2019-11-12T11:21:53Z</time>
      </trkpt>
      <trkpt lat="44.84625" lon="4.66684">
        <ele>574</ele>
        <time>2019-11-12T11:22:29Z</time>
      </trkpt>
      <trkpt lat="44.84624" lon="4.66684">
        <ele>574</ele>
        <time>2019-11-12T11:23:04Z</time>
      </trkpt>
      <trkpt lat="44.84628" lon="4.66682">
        <ele>574</ele>
        <time>2019-11-12T11:23:34Z</time>
      </trkpt>
      <trkpt lat="44.84628" lon="4.66685">
        <ele>575</ele>
        <time>2019-11-12T11:23:59Z</time>
      </trkpt>
      <trkpt lat="44.84625" lon="4.66683">
        <ele>574</ele>
        <time>2019-11-12T11:24:25Z</time>
      </trkpt>
      <trkpt lat="44.84626" lon="4.66686">
        <ele>575</ele>
        <time>2019-11-12T11:24:59Z</time>
      </trkpt>
      <trkpt lat="44.84627" lon="4.66684">
        <ele>574</ele>
        <time>2019-11-12T11:25:29Z</time>
      </trkpt>
      <trkpt lat="44.84626" lon="4.66683">
        <ele>574</ele>
        <time>2019-11-12T11:25:55Z</time>
      </trkpt>
      <trkpt lat="44.84623" lon="4.66682">
        <ele>573</ele>
        <time>2019-11-12T11:26:24Z</time>
      </trkpt>
      <trkpt lat="44.84625" lon="4.66682">
        <ele>573</ele>
        <time>2019-11-12T11:26:49Z</time>
      </trkpt>
      <trkpt lat="44.84626" lon="4.66684">
        <ele>574</ele>
        <time>2019-11-12T11:27:19Z</time>
      </trkpt>
      <trkpt lat="44.84626" lon="4.66681">
        <ele>573</ele>
        <time>2019-11-12T11:27:50Z</time>
      </trkpt>
      <trkpt lat="44.84626" lon="4.66685">
        <ele>575</ele>
        <time>2019-11-12T11:28:13Z</time>
      </trkpt>
      <trkpt lat="44.84625" lon="4.66687">
        <ele>575</ele>
        <time>2019-11-12T11:28:39Z</time>
      </trkpt>
      <trkpt lat="44.84626" lon="4.66684">
        <ele>574</ele>
        <time>2019-11-12T11:29:09Z</time>
      </trkpt>
      <trkpt lat="44.84627" lon="4.66685">
        <ele>575</ele>
        <time>2019-11-12T11:29:39Z</time>
      </trkpt>
      <trkpt lat="44.84628" lon="4.66684">
        <ele>575</ele>
        <time>2019-11-12T11:30:08Z</time>
      </trkpt>
      <trkpt lat="44.84626" lon="4.66688">
        <ele>575</ele>
        <time>2019-11-12T11:30:37Z</time>
      </trkpt>
      <trkpt lat="44.84625" lon="4.66685">
        <ele>574</ele>
        <time>2019-11-12T11:31:06Z</time>
      </trkpt>
      <trkpt lat="44.84626" lon="4.66685">
        <ele>574</ele>
        <time>2019-11-12T11:31:37Z</time>
      </trkpt>
      <trkpt lat="44.84626" lon="4.66686">
        <ele>575</ele>
        <time>2019-11-12T11:32:10Z</time>
      </trkpt>
      <trkpt lat="44.84626" lon="4.66684">
        <ele>574</ele>
        <time>2019-11-12T11:32:28Z</time>
      </trkpt>
      <trkpt lat="44.84627" lon="4.66685">
        <ele>575</ele>
        <time>2019-11-12T11:32:52Z</time>
      </trkpt>
      <trkpt lat="44.84626" lon="4.66681">
        <ele>573</ele>
        <time>2019-11-12T11:33:07Z</time>
      </trkpt>
      <trkpt lat="44.84625" lon="4.66684">
        <ele>574</ele>
        <time>2019-11-12T11:33:18Z</time>
      </trkpt>
      <trkpt lat="44.84626" lon="4.66683">
        <ele>574</ele>
        <time>2019-11-12T11:33:39Z</time>
      </trkpt>
      <trkpt lat="44.84624" lon="4.66681">
        <ele>573</ele>
        <time>2019-11-12T11:33:55Z</time>
      </trkpt>
      <trkpt lat="44.84626" lon="4.66682">
        <ele>573</ele>
        <time>2019-11-12T11:34:07Z</time>
      </trkpt>
      <trkpt lat="44.84625" lon="4.66682">
        <ele>573</ele>
        <time>2019-11-12T11:34:24Z</time>
      </trkpt>
      <trkpt lat="44.84625" lon="4.66682">
        <ele>573</ele>
        <time>2019-11-12T11:34:37Z</time>
      </trkpt>
      <trkpt lat="44.84626" lon="4.66684">
        <ele>574</ele>
        <time>2019-11-12T11:34:57Z</time>
      </trkpt>
      <trkpt lat="44.84625" lon="4.66681">
        <ele>573</ele>
        <time>2019-11-12T11:35:18Z</time>
      </trkpt>
      <trkpt lat="44.84626" lon="4.66682">
        <ele>574</ele>
        <time>2019-11-12T11:35:41Z</time>
      </trkpt>
      <trkpt lat="44.84624" lon="4.66679">
        <ele>572</ele>
        <time>2019-11-12T11:35:56Z</time>
      </trkpt>
      <trkpt lat="44.84624" lon="4.66678">
        <ele>572</ele>
        <time>2019-11-12T11:36:12Z</time>
      </trkpt>
      <trkpt lat="44.84624" lon="4.66673">
        <ele>571</ele>
        <time>2019-11-12T11:36:17Z</time>
      </trkpt>
      <trkpt lat="44.84628" lon="4.66664">
        <ele>569</ele>
        <time>2019-11-12T11:36:28Z</time>
      </trkpt>
      <trkpt lat="44.84632" lon="4.66662">
        <ele>570</ele>
        <time>2019-11-12T11:36:42Z</time>
      </trkpt>
      <trkpt lat="44.84641" lon="4.66656">
        <ele>571</ele>
        <time>2019-11-12T11:36:56Z</time>
      </trkpt>
      <trkpt lat="44.84649" lon="4.66652">
        <ele>571</ele>
        <time>2019-11-12T11:37:05Z</time>
      </trkpt>
      <trkpt lat="44.84651" lon="4.66651">
        <ele>572</ele>
        <time>2019-11-12T11:37:07Z</time>
      </trkpt>
      <trkpt lat="44.84655" lon="4.66649">
        <ele>572</ele>
        <time>2019-11-12T11:37:11Z</time>
      </trkpt>
      <trkpt lat="44.84673" lon="4.66639">
        <ele>573</ele>
        <time>2019-11-12T11:37:28Z</time>
      </trkpt>
      <trkpt lat="44.84687" lon="4.6663">
        <ele>574</ele>
        <time>2019-11-12T11:37:42Z</time>
      </trkpt>
      <trkpt lat="44.84697" lon="4.66624">
        <ele>575</ele>
        <time>2019-11-12T11:37:51Z</time>
      </trkpt>
      <trkpt lat="44.847" lon="4.66623">
        <ele>575</ele>
        <time>2019-11-12T11:37:54Z</time>
      </trkpt>
      <trkpt lat="44.84715" lon="4.66615">
        <ele>576</ele>
        <time>2019-11-12T11:38:09Z</time>
      </trkpt>
      <trkpt lat="44.84731" lon="4.66605">
        <ele>576</ele>
        <time>2019-11-12T11:38:24Z</time>
      </trkpt>
      <trkpt lat="44.84744" lon="4.66591">
        <ele>575</ele>
        <time>2019-11-12T11:38:38Z</time>
      </trkpt>
      <trkpt lat="44.84764" lon="4.6659">
        <ele>576</ele>
        <time>2019-11-12T11:38:54Z</time>
      </trkpt>
      <trkpt lat="44.84782" lon="4.66591">
        <ele>576</ele>
        <time>2019-11-12T11:39:09Z</time>
      </trkpt>
      <trkpt lat="44.84784" lon="4.66583">
        <ele>575</ele>
        <time>2019-11-12T11:39:14Z</time>
      </trkpt>
      <trkpt lat="44.84775" lon="4.66556">
        <ele>576</ele>
        <time>2019-11-12T11:39:31Z</time>
      </trkpt>
      <trkpt lat="44.84772" lon="4.66533">
        <ele>577</ele>
        <time>2019-11-12T11:39:44Z</time>
      </trkpt>
      <trkpt lat="44.8477" lon="4.66515">
        <ele>579</ele>
        <time>2019-11-12T11:39:59Z</time>
      </trkpt>
      <trkpt lat="44.84761" lon="4.66494">
        <ele>580</ele>
        <time>2019-11-12T11:40:14Z</time>
      </trkpt>
      <trkpt lat="44.84743" lon="4.66479">
        <ele>579</ele>
        <time>2019-11-12T11:40:33Z</time>
      </trkpt>
      <trkpt lat="44.84725" lon="4.66463">
        <ele>579</ele>
        <time>2019-11-12T11:40:50Z</time>
      </trkpt>
      <trkpt lat="44.847" lon="4.66447">
        <ele>577</ele>
        <time>2019-11-12T11:41:11Z</time>
      </trkpt>
      <trkpt lat="44.84679" lon="4.66423">
        <ele>577</ele>
        <time>2019-11-12T11:41:32Z</time>
      </trkpt>
      <trkpt lat="44.84668" lon="4.66412">
        <ele>577</ele>
        <time>2019-11-12T11:41:43Z</time>
      </trkpt>
      <trkpt lat="44.84644" lon="4.66401">
        <ele>576</ele>
        <time>2019-11-12T11:42:04Z</time>
      </trkpt>
      <trkpt lat="44.84642" lon="4.664">
        <ele>576</ele>
        <time>2019-11-12T11:42:06Z</time>
      </trkpt>
      <trkpt lat="44.84621" lon="4.66387">
        <ele>575</ele>
        <time>2019-11-12T11:42:25Z</time>
      </trkpt>
      <trkpt lat="44.84603" lon="4.66381">
        <ele>574</ele>
        <time>2019-11-12T11:42:40Z</time>
      </trkpt>
      <trkpt lat="44.84587" lon="4.66369">
        <ele>574</ele>
        <time>2019-11-12T11:42:56Z</time>
      </trkpt>
      <trkpt lat="44.84571" lon="4.66345">
        <ele>575</ele>
        <time>2019-11-12T11:43:17Z</time>
      </trkpt>
      <trkpt lat="44.84566" lon="4.66337">
        <ele>576</ele>
        <time>2019-11-12T11:43:24Z</time>
      </trkpt>
      <trkpt lat="44.84543" lon="4.66335">
        <ele>571</ele>
        <time>2019-11-12T11:43:43Z</time>
      </trkpt>
      <trkpt lat="44.84521" lon="4.66326">
        <ele>567</ele>
        <time>2019-11-12T11:44:01Z</time>
      </trkpt>
      <trkpt lat="44.84515" lon="4.66321">
        <ele>567</ele>
        <time>2019-11-12T11:44:07Z</time>
      </trkpt>
      <trkpt lat="44.84498" lon="4.66299">
        <ele>567</ele>
        <time>2019-11-12T11:44:26Z</time>
      </trkpt>
      <trkpt lat="44.84492" lon="4.66284">
        <ele>568</ele>
        <time>2019-11-12T11:44:37Z</time>
      </trkpt>
      <trkpt lat="44.84488" lon="4.6625">
        <ele>573</ele>
        <time>2019-11-12T11:44:58Z</time>
      </trkpt>
      <trkpt lat="44.84475" lon="4.66221">
        <ele>575</ele>
        <time>2019-11-12T11:45:17Z</time>
      </trkpt>
      <trkpt lat="44.84456" lon="4.66204">
        <ele>573</ele>
        <time>2019-11-12T11:45:34Z</time>
      </trkpt>
      <trkpt lat="44.84454" lon="4.66202">
        <ele>573</ele>
        <time>2019-11-12T11:45:36Z</time>
      </trkpt>
      <trkpt lat="44.84443" lon="4.66195">
        <ele>573</ele>
        <time>2019-11-12T11:45:48Z</time>
      </trkpt>
      <trkpt lat="44.84432" lon="4.66184">
        <ele>572</ele>
        <time>2019-11-12T11:46:02Z</time>
      </trkpt>
      <trkpt lat="44.8441" lon="4.66162">
        <ele>573</ele>
        <time>2019-11-12T11:46:23Z</time>
      </trkpt>
      <trkpt lat="44.8439" lon="4.66153">
        <ele>572</ele>
        <time>2019-11-12T11:46:38Z</time>
      </trkpt>
      <trkpt lat="44.84369" lon="4.66151">
        <ele>569</ele>
        <time>2019-11-12T11:46:55Z</time>
      </trkpt>
      <trkpt lat="44.84361" lon="4.66151">
        <ele>568</ele>
        <time>2019-11-12T11:47:09Z</time>
      </trkpt>
      <trkpt lat="44.84355" lon="4.6615">
        <ele>568</ele>
        <time>2019-11-12T11:47:16Z</time>
      </trkpt>
      <trkpt lat="44.84331" lon="4.66142">
        <ele>568</ele>
        <time>2019-11-12T11:47:37Z</time>
      </trkpt>
      <trkpt lat="44.84311" lon="4.66128">
        <ele>569</ele>
        <time>2019-11-12T11:47:55Z</time>
      </trkpt>
      <trkpt lat="44.84297" lon="4.66116">
        <ele>568</ele>
        <time>2019-11-12T11:48:10Z</time>
      </trkpt>
      <trkpt lat="44.84281" lon="4.66096">
        <ele>568</ele>
        <time>2019-11-12T11:48:28Z</time>
      </trkpt>
      <trkpt lat="44.84271" lon="4.66071">
        <ele>570</ele>
        <time>2019-11-12T11:48:44Z</time>
      </trkpt>
      <trkpt lat="44.84259" lon="4.66051">
        <ele>568</ele>
        <time>2019-11-12T11:49:00Z</time>
      </trkpt>
      <trkpt lat="44.84252" lon="4.66033">
        <ele>569</ele>
        <time>2019-11-12T11:49:18Z</time>
      </trkpt>
      <trkpt lat="44.84247" lon="4.66017">
        <ele>570</ele>
        <time>2019-11-12T11:49:33Z</time>
      </trkpt>
      <trkpt lat="44.84245" lon="4.66006">
        <ele>571</ele>
        <time>2019-11-12T11:49:49Z</time>
      </trkpt>
      <trkpt lat="44.84237" lon="4.65973">
        <ele>574</ele>
        <time>2019-11-12T11:50:10Z</time>
      </trkpt>
      <trkpt lat="44.84226" lon="4.65946">
        <ele>575</ele>
        <time>2019-11-12T11:50:29Z</time>
      </trkpt>
      <trkpt lat="44.84216" lon="4.65922">
        <ele>576</ele>
        <time>2019-11-12T11:50:46Z</time>
      </trkpt>
      <trkpt lat="44.842" lon="4.65898">
        <ele>577</ele>
        <time>2019-11-12T11:51:02Z</time>
      </trkpt>
      <trkpt lat="44.84198" lon="4.65897">
        <ele>576</ele>
        <time>2019-11-12T11:51:03Z</time>
      </trkpt>
      <trkpt lat="44.84192" lon="4.65896">
        <ele>575</ele>
        <time>2019-11-12T11:51:07Z</time>
      </trkpt>
      <trkpt lat="44.84162" lon="4.65901">
        <ele>567</ele>
        <time>2019-11-12T11:51:25Z</time>
      </trkpt>
      <trkpt lat="44.84137" lon="4.659">
        <ele>565</ele>
        <time>2019-11-12T11:51:44Z</time>
      </trkpt>
      <trkpt lat="44.84133" lon="4.65901">
        <ele>564</ele>
        <time>2019-11-12T11:51:47Z</time>
      </trkpt>
      <trkpt lat="44.84105" lon="4.65905">
        <ele>561</ele>
        <time>2019-11-12T11:52:07Z</time>
      </trkpt>
      <trkpt lat="44.8408" lon="4.65901">
        <ele>560</ele>
        <time>2019-11-12T11:52:26Z</time>
      </trkpt>
      <trkpt lat="44.84049" lon="4.65903">
        <ele>556</ele>
        <time>2019-11-12T11:52:49Z</time>
      </trkpt>
      <trkpt lat="44.84024" lon="4.65896">
        <ele>554</ele>
        <time>2019-11-12T11:53:09Z</time>
      </trkpt>
      <trkpt lat="44.84004" lon="4.65879">
        <ele>554</ele>
        <time>2019-11-12T11:53:28Z</time>
      </trkpt>
      <trkpt lat="44.83987" lon="4.65852">
        <ele>556</ele>
        <time>2019-11-12T11:53:47Z</time>
      </trkpt>
      <trkpt lat="44.83982" lon="4.65837">
        <ele>557</ele>
        <time>2019-11-12T11:53:56Z</time>
      </trkpt>
      <trkpt lat="44.83963" lon="4.65808">
        <ele>558</ele>
        <time>2019-11-12T11:54:18Z</time>
      </trkpt>
      <trkpt lat="44.83945" lon="4.65791">
        <ele>559</ele>
        <time>2019-11-12T11:54:36Z</time>
      </trkpt>
      <trkpt lat="44.83928" lon="4.65777">
        <ele>559</ele>
        <time>2019-11-12T11:54:53Z</time>
      </trkpt>
      <trkpt lat="44.83909" lon="4.65766">
        <ele>557</ele>
        <time>2019-11-12T11:55:10Z</time>
      </trkpt>
      <trkpt lat="44.83902" lon="4.65767">
        <ele>555</ele>
        <time>2019-11-12T11:55:25Z</time>
      </trkpt>
      <trkpt lat="44.83901" lon="4.65766">
        <ele>555</ele>
        <time>2019-11-12T11:55:31Z</time>
      </trkpt>
      <trkpt lat="44.83888" lon="4.6575">
        <ele>556</ele>
        <time>2019-11-12T11:55:48Z</time>
      </trkpt>
      <trkpt lat="44.8388" lon="4.65739">
        <ele>556</ele>
        <time>2019-11-12T11:56:02Z</time>
      </trkpt>
      <trkpt lat="44.83864" lon="4.65725">
        <ele>555</ele>
        <time>2019-11-12T11:56:17Z</time>
      </trkpt>
      <trkpt lat="44.83846" lon="4.65706">
        <ele>553</ele>
        <time>2019-11-12T11:56:37Z</time>
      </trkpt>
      <trkpt lat="44.83838" lon="4.65692">
        <ele>553</ele>
        <time>2019-11-12T11:56:53Z</time>
      </trkpt>
      <trkpt lat="44.83838" lon="4.65668">
        <ele>553</ele>
        <time>2019-11-12T11:57:11Z</time>
      </trkpt>
      <trkpt lat="44.83838" lon="4.65643">
        <ele>552</ele>
        <time>2019-11-12T11:57:27Z</time>
      </trkpt>
      <trkpt lat="44.83823" lon="4.65628">
        <ele>545</ele>
        <time>2019-11-12T11:57:40Z</time>
      </trkpt>
      <trkpt lat="44.83818" lon="4.65647">
        <ele>543</ele>
        <time>2019-11-12T11:57:57Z</time>
      </trkpt>
      <trkpt lat="44.83814" lon="4.65671">
        <ele>542</ele>
        <time>2019-11-12T11:58:13Z</time>
      </trkpt>
      <trkpt lat="44.83809" lon="4.65691">
        <ele>539</ele>
        <time>2019-11-12T11:58:28Z</time>
      </trkpt>
      <trkpt lat="44.83804" lon="4.65716">
        <ele>537</ele>
        <time>2019-11-12T11:58:45Z</time>
      </trkpt>
      <trkpt lat="44.83793" lon="4.65738">
        <ele>532</ele>
        <time>2019-11-12T11:59:01Z</time>
      </trkpt>
      <trkpt lat="44.83786" lon="4.65761">
        <ele>530</ele>
        <time>2019-11-12T11:59:18Z</time>
      </trkpt>
      <trkpt lat="44.83773" lon="4.65779">
        <ele>527</ele>
        <time>2019-11-12T11:59:37Z</time>
      </trkpt>
      <trkpt lat="44.83772" lon="4.6578">
        <ele>526</ele>
        <time>2019-11-12T11:59:38Z</time>
      </trkpt>
      <trkpt lat="44.83748" lon="4.65799">
        <ele>518</ele>
        <time>2019-11-12T11:59:59Z</time>
      </trkpt>
      <trkpt lat="44.8374" lon="4.65808">
        <ele>516</ele>
        <time>2019-11-12T12:00:13Z</time>
      </trkpt>
      <trkpt lat="44.83731" lon="4.65818">
        <ele>513</ele>
        <time>2019-11-12T12:00:26Z</time>
      </trkpt>
      <trkpt lat="44.83716" lon="4.65825">
        <ele>511</ele>
        <time>2019-11-12T12:00:42Z</time>
      </trkpt>
      <trkpt lat="44.83705" lon="4.6583">
        <ele>509</ele>
        <time>2019-11-12T12:00:58Z</time>
      </trkpt>
      <trkpt lat="44.83702" lon="4.65836">
        <ele>508</ele>
        <time>2019-11-12T12:01:12Z</time>
      </trkpt>
      <trkpt lat="44.83688" lon="4.65842">
        <ele>507</ele>
        <time>2019-11-12T12:01:28Z</time>
      </trkpt>
      <trkpt lat="44.8368" lon="4.65843">
        <ele>506</ele>
        <time>2019-11-12T12:01:39Z</time>
      </trkpt>
      <trkpt lat="44.83677" lon="4.65841">
        <ele>505</ele>
        <time>2019-11-12T12:01:52Z</time>
      </trkpt>
      <trkpt lat="44.83671" lon="4.6582">
        <ele>504</ele>
        <time>2019-11-12T12:02:08Z</time>
      </trkpt>
      <trkpt lat="44.8367" lon="4.65811">
        <ele>504</ele>
        <time>2019-11-12T12:02:15Z</time>
      </trkpt>
      <trkpt lat="44.83664" lon="4.65807">
        <ele>502</ele>
        <time>2019-11-12T12:02:30Z</time>
      </trkpt>
      <trkpt lat="44.83664" lon="4.65808">
        <ele>502</ele>
        <time>2019-11-12T12:02:32Z</time>
      </trkpt>
      <trkpt lat="44.83651" lon="4.65813">
        <ele>500</ele>
        <time>2019-11-12T12:02:48Z</time>
      </trkpt>
      <trkpt lat="44.83641" lon="4.65815">
        <ele>498</ele>
        <time>2019-11-12T12:03:02Z</time>
      </trkpt>
      <trkpt lat="44.83637" lon="4.65816">
        <ele>497</ele>
        <time>2019-11-12T12:03:21Z</time>
      </trkpt>
      <trkpt lat="44.83624" lon="4.65822">
        <ele>494</ele>
        <time>2019-11-12T12:03:35Z</time>
      </trkpt>
      <trkpt lat="44.83621" lon="4.65825">
        <ele>493</ele>
        <time>2019-11-12T12:03:38Z</time>
      </trkpt>
      <trkpt lat="44.836" lon="4.65832">
        <ele>487</ele>
        <time>2019-11-12T12:03:57Z</time>
      </trkpt>
      <trkpt lat="44.83583" lon="4.6583">
        <ele>482</ele>
        <time>2019-11-12T12:04:12Z</time>
      </trkpt>
      <trkpt lat="44.83565" lon="4.65832">
        <ele>477</ele>
        <time>2019-11-12T12:04:28Z</time>
      </trkpt>
      <trkpt lat="44.83549" lon="4.6583">
        <ele>472</ele>
        <time>2019-11-12T12:04:43Z</time>
      </trkpt>
      <trkpt lat="44.83533" lon="4.65816">
        <ele>469</ele>
        <time>2019-11-12T12:05:01Z</time>
      </trkpt>
      <trkpt lat="44.8352" lon="4.65807">
        <ele>467</ele>
        <time>2019-11-12T12:05:17Z</time>
      </trkpt>
      <trkpt lat="44.83519" lon="4.65805">
        <ele>467</ele>
        <time>2019-11-12T12:05:46Z</time>
      </trkpt>
      <trkpt lat="44.83518" lon="4.65804">
        <ele>466</ele>
        <time>2019-11-12T12:05:59Z</time>
      </trkpt>
      <trkpt lat="44.83514" lon="4.65802">
        <ele>466</ele>
        <time>2019-11-12T12:06:20Z</time>
      </trkpt>
      <trkpt lat="44.83501" lon="4.65785">
        <ele>465</ele>
        <time>2019-11-12T12:06:39Z</time>
      </trkpt>
      <trkpt lat="44.83494" lon="4.65775">
        <ele>464</ele>
        <time>2019-11-12T12:06:52Z</time>
      </trkpt>
      <trkpt lat="44.83493" lon="4.65771">
        <ele>463</ele>
        <time>2019-11-12T12:06:55Z</time>
      </trkpt>
      <trkpt lat="44.8348" lon="4.65759">
        <ele>459</ele>
        <time>2019-11-12T12:07:11Z</time>
      </trkpt>
      <trkpt lat="44.83477" lon="4.65759">
        <ele>458</ele>
        <time>2019-11-12T12:07:14Z</time>
      </trkpt>
      <trkpt lat="44.83472" lon="4.65759">
        <ele>457</ele>
        <time>2019-11-12T12:07:19Z</time>
      </trkpt>
      <trkpt lat="44.83463" lon="4.65768">
        <ele>455</ele>
        <time>2019-11-12T12:07:31Z</time>
      </trkpt>
      <trkpt lat="44.83458" lon="4.6577">
        <ele>454</ele>
        <time>2019-11-12T12:07:35Z</time>
      </trkpt>
      <trkpt lat="44.83444" lon="4.65766">
        <ele>451</ele>
        <time>2019-11-12T12:07:49Z</time>
      </trkpt>
      <trkpt lat="44.8344" lon="4.65767">
        <ele>449</ele>
        <time>2019-11-12T12:07:54Z</time>
      </trkpt>
      <trkpt lat="44.83435" lon="4.65768">
        <ele>448</ele>
        <time>2019-11-12T12:07:59Z</time>
      </trkpt>
      <trkpt lat="44.83428" lon="4.65773">
        <ele>446</ele>
        <time>2019-11-12T12:08:06Z</time>
      </trkpt>
      <trkpt lat="44.83426" lon="4.65772">
        <ele>445</ele>
        <time>2019-11-12T12:08:08Z</time>
      </trkpt>
      <trkpt lat="44.83422" lon="4.65767">
        <ele>444</ele>
        <time>2019-11-12T12:08:13Z</time>
      </trkpt>
      <trkpt lat="44.83418" lon="4.65746">
        <ele>442</ele>
        <time>2019-11-12T12:08:28Z</time>
      </trkpt>
      <trkpt lat="44.83417" lon="4.65746">
        <ele>441</ele>
        <time>2019-11-12T12:08:30Z</time>
      </trkpt>
      <trkpt lat="44.83408" lon="4.6575">
        <ele>439</ele>
        <time>2019-11-12T12:08:44Z</time>
      </trkpt>
      <trkpt lat="44.83398" lon="4.6576">
        <ele>435</ele>
        <time>2019-11-12T12:08:57Z</time>
      </trkpt>
      <trkpt lat="44.83392" lon="4.65764">
        <ele>433</ele>
        <time>2019-11-12T12:09:04Z</time>
      </trkpt>
      <trkpt lat="44.83386" lon="4.65764">
        <ele>431</ele>
        <time>2019-11-12T12:09:09Z</time>
      </trkpt>
      <trkpt lat="44.83369" lon="4.65779">
        <ele>427</ele>
        <time>2019-11-12T12:09:27Z</time>
      </trkpt>
      <trkpt lat="44.83361" lon="4.65785">
        <ele>423</ele>
        <time>2019-11-12T12:09:36Z</time>
      </trkpt>
      <trkpt lat="44.83346" lon="4.65774">
        <ele>423</ele>
        <time>2019-11-12T12:09:55Z</time>
      </trkpt>
      <trkpt lat="44.83342" lon="4.6577">
        <ele>423</ele>
        <time>2019-11-12T12:10:05Z</time>
      </trkpt>
      <trkpt lat="44.83345" lon="4.65758">
        <ele>423</ele>
        <time>2019-11-12T12:10:16Z</time>
      </trkpt>
      <trkpt lat="44.83341" lon="4.65749">
        <ele>423</ele>
        <time>2019-11-12T12:10:30Z</time>
      </trkpt>
      <trkpt lat="44.83329" lon="4.65758">
        <ele>421</ele>
        <time>2019-11-12T12:10:45Z</time>
      </trkpt>
      <trkpt lat="44.83322" lon="4.65772">
        <ele>420</ele>
        <time>2019-11-12T12:11:03Z</time>
      </trkpt>
      <trkpt lat="44.8331" lon="4.65781">
        <ele>417</ele>
        <time>2019-11-12T12:11:19Z</time>
      </trkpt>
      <trkpt lat="44.83305" lon="4.65787">
        <ele>415</ele>
        <time>2019-11-12T12:11:25Z</time>
      </trkpt>
      <trkpt lat="44.83288" lon="4.65802">
        <ele>414</ele>
        <time>2019-11-12T12:11:41Z</time>
      </trkpt>
      <trkpt lat="44.83274" lon="4.65823">
        <ele>411</ele>
        <time>2019-11-12T12:11:55Z</time>
      </trkpt>
      <trkpt lat="44.8326" lon="4.65848">
        <ele>410</ele>
        <time>2019-11-12T12:12:13Z</time>
      </trkpt>
      <trkpt lat="44.83244" lon="4.65878">
        <ele>406</ele>
        <time>2019-11-12T12:12:33Z</time>
      </trkpt>
      <trkpt lat="44.83219" lon="4.65896">
        <ele>405</ele>
        <time>2019-11-12T12:12:55Z</time>
      </trkpt>
      <trkpt lat="44.83204" lon="4.65913">
        <ele>403</ele>
        <time>2019-11-12T12:13:13Z</time>
      </trkpt>
      <trkpt lat="44.83191" lon="4.6593">
        <ele>401</ele>
        <time>2019-11-12T12:13:30Z</time>
      </trkpt>
      <trkpt lat="44.83186" lon="4.6594">
        <ele>399</ele>
        <time>2019-11-12T12:13:42Z</time>
      </trkpt>
      <trkpt lat="44.83185" lon="4.65945">
        <ele>398</ele>
        <time>2019-11-12T12:13:45Z</time>
      </trkpt>
      <trkpt lat="44.83192" lon="4.65956">
        <ele>394</ele>
        <time>2019-11-12T12:14:02Z</time>
      </trkpt>
      <trkpt lat="44.83203" lon="4.6595">
        <ele>394</ele>
        <time>2019-11-12T12:14:17Z</time>
      </trkpt>
      <trkpt lat="44.83218" lon="4.65938">
        <ele>395</ele>
        <time>2019-11-12T12:14:33Z</time>
      </trkpt>
      <trkpt lat="44.83238" lon="4.65927">
        <ele>394</ele>
        <time>2019-11-12T12:14:53Z</time>
      </trkpt>
      <trkpt lat="44.83253" lon="4.65918">
        <ele>393</ele>
        <time>2019-11-12T12:15:06Z</time>
      </trkpt>
      <trkpt lat="44.8327" lon="4.65902">
        <ele>393</ele>
        <time>2019-11-12T12:15:24Z</time>
      </trkpt>
      <trkpt lat="44.83286" lon="4.65881">
        <ele>394</ele>
        <time>2019-11-12T12:15:41Z</time>
      </trkpt>
      <trkpt lat="44.83309" lon="4.65864">
        <ele>395</ele>
        <time>2019-11-12T12:16:01Z</time>
      </trkpt>
      <trkpt lat="44.83318" lon="4.65864">
        <ele>396</ele>
        <time>2019-11-12T12:16:07Z</time>
      </trkpt>
      <trkpt lat="44.83337" lon="4.65882">
        <ele>394</ele>
        <time>2019-11-12T12:16:23Z</time>
      </trkpt>
      <trkpt lat="44.83353" lon="4.65907">
        <ele>390</ele>
        <time>2019-11-12T12:16:42Z</time>
      </trkpt>
      <trkpt lat="44.8337" lon="4.6592">
        <ele>391</ele>
        <time>2019-11-12T12:16:58Z</time>
      </trkpt>
      <trkpt lat="44.8338" lon="4.65941">
        <ele>389</ele>
        <time>2019-11-12T12:17:13Z</time>
      </trkpt>
      <trkpt lat="44.8339" lon="4.65967">
        <ele>388</ele>
        <time>2019-11-12T12:17:30Z</time>
      </trkpt>
      <trkpt lat="44.8339" lon="4.65978">
        <ele>387</ele>
        <time>2019-11-12T12:17:38Z</time>
      </trkpt>
      <trkpt lat="44.83388" lon="4.6598">
        <ele>386</ele>
        <time>2019-11-12T12:17:40Z</time>
      </trkpt>
      <trkpt lat="44.83379" lon="4.65977">
        <ele>383</ele>
        <time>2019-11-12T12:17:49Z</time>
      </trkpt>
      <trkpt lat="44.83361" lon="4.65956">
        <ele>380</ele>
        <time>2019-11-12T12:18:08Z</time>
      </trkpt>
      <trkpt lat="44.83339" lon="4.65943">
        <ele>378</ele>
        <time>2019-11-12T12:18:28Z</time>
      </trkpt>
      <trkpt lat="44.8332" lon="4.65947">
        <ele>374</ele>
        <time>2019-11-12T12:18:44Z</time>
      </trkpt>
      <trkpt lat="44.83307" lon="4.65965">
        <ele>368</ele>
        <time>2019-11-12T12:19:00Z</time>
      </trkpt>
      <trkpt lat="44.8329" lon="4.65981">
        <ele>367</ele>
        <time>2019-11-12T12:19:16Z</time>
      </trkpt>
      <trkpt lat="44.83273" lon="4.66">
        <ele>364</ele>
        <time>2019-11-12T12:19:33Z</time>
      </trkpt>
      <trkpt lat="44.8326" lon="4.66019">
        <ele>361</ele>
        <time>2019-11-12T12:19:48Z</time>
      </trkpt>
      <trkpt lat="44.83254" lon="4.66026">
        <ele>360</ele>
        <time>2019-11-12T12:19:54Z</time>
      </trkpt>
      <trkpt lat="44.83247" lon="4.66042">
        <ele>356</ele>
        <time>2019-11-12T12:20:05Z</time>
      </trkpt>
      <trkpt lat="44.83236" lon="4.66063">
        <ele>352</ele>
        <time>2019-11-12T12:20:20Z</time>
      </trkpt>
      <trkpt lat="44.83231" lon="4.66075">
        <ele>348</ele>
        <time>2019-11-12T12:20:29Z</time>
      </trkpt>
      <trkpt lat="44.83218" lon="4.66101">
        <ele>341</ele>
        <time>2019-11-12T12:20:48Z</time>
      </trkpt>
      <trkpt lat="44.83214" lon="4.66109">
        <ele>340</ele>
        <time>2019-11-12T12:21:01Z</time>
      </trkpt>
      <trkpt lat="44.83203" lon="4.66123">
        <ele>336</ele>
        <time>2019-11-12T12:21:17Z</time>
      </trkpt>
      <trkpt lat="44.83187" lon="4.66144">
        <ele>331</ele>
        <time>2019-11-12T12:21:35Z</time>
      </trkpt>
      <trkpt lat="44.83177" lon="4.66153">
        <ele>330</ele>
        <time>2019-11-12T12:21:47Z</time>
      </trkpt>
      <trkpt lat="44.83156" lon="4.6615">
        <ele>333</ele>
        <time>2019-11-12T12:22:06Z</time>
      </trkpt>
      <trkpt lat="44.83133" lon="4.66152">
        <ele>332</ele>
        <time>2019-11-12T12:22:25Z</time>
      </trkpt>
      <trkpt lat="44.83111" lon="4.66157">
        <ele>328</ele>
        <time>2019-11-12T12:22:42Z</time>
      </trkpt>
      <trkpt lat="44.8309" lon="4.66169">
        <ele>322</ele>
        <time>2019-11-12T12:23:00Z</time>
      </trkpt>
      <trkpt lat="44.83067" lon="4.66176">
        <ele>319</ele>
        <time>2019-11-12T12:23:20Z</time>
      </trkpt>
      <trkpt lat="44.83048" lon="4.66186">
        <ele>314</ele>
        <time>2019-11-12T12:23:38Z</time>
      </trkpt>
      <trkpt lat="44.83029" lon="4.66194">
        <ele>311</ele>
        <time>2019-11-12T12:23:55Z</time>
      </trkpt>
      <trkpt lat="44.83016" lon="4.662">
        <ele>309</ele>
        <time>2019-11-12T12:24:06Z</time>
      </trkpt>
      <trkpt lat="44.83012" lon="4.66206">
        <ele>308</ele>
        <time>2019-11-12T12:24:12Z</time>
      </trkpt>
      <trkpt lat="44.83003" lon="4.66218">
        <ele>306</ele>
        <time>2019-11-12T12:24:25Z</time>
      </trkpt>
      <trkpt lat="44.82987" lon="4.66235">
        <ele>304</ele>
        <time>2019-11-12T12:24:44Z</time>
      </trkpt>
      <trkpt lat="44.82975" lon="4.66244">
        <ele>304</ele>
        <time>2019-11-12T12:24:54Z</time>
      </trkpt>
      <trkpt lat="44.8297" lon="4.66245">
        <ele>304</ele>
        <time>2019-11-12T12:24:59Z</time>
      </trkpt>
      <trkpt lat="44.82956" lon="4.66231">
        <ele>306</ele>
        <time>2019-11-12T12:25:16Z</time>
      </trkpt>
      <trkpt lat="44.82957" lon="4.66216">
        <ele>306</ele>
        <time>2019-11-12T12:25:32Z</time>
      </trkpt>
      <trkpt lat="44.82963" lon="4.6619">
        <ele>305</ele>
        <time>2019-11-12T12:25:49Z</time>
      </trkpt>
      <trkpt lat="44.82972" lon="4.66165">
        <ele>306</ele>
        <time>2019-11-12T12:26:07Z</time>
      </trkpt>
      <trkpt lat="44.82969" lon="4.66134">
        <ele>304</ele>
        <time>2019-11-12T12:26:25Z</time>
      </trkpt>
      <trkpt lat="44.82972" lon="4.66107">
        <ele>305</ele>
        <time>2019-11-12T12:26:43Z</time>
      </trkpt>
      <trkpt lat="44.82966" lon="4.66098">
        <ele>303</ele>
        <time>2019-11-12T12:26:57Z</time>
      </trkpt>
      <trkpt lat="44.82961" lon="4.66109">
        <ele>300</ele>
        <time>2019-11-12T12:27:05Z</time>
      </trkpt>
      <trkpt lat="44.82949" lon="4.66141">
        <ele>296</ele>
        <time>2019-11-12T12:27:27Z</time>
      </trkpt>
      <trkpt lat="44.82936" lon="4.66159">
        <ele>294</ele>
        <time>2019-11-12T12:27:42Z</time>
      </trkpt>
      <trkpt lat="44.82913" lon="4.66175">
        <ele>290</ele>
        <time>2019-11-12T12:28:02Z</time>
      </trkpt>
      <trkpt lat="44.82885" lon="4.66181">
        <ele>284</ele>
        <time>2019-11-12T12:28:26Z</time>
      </trkpt>
      <trkpt lat="44.82883" lon="4.66178">
        <ele>282</ele>
        <time>2019-11-12T12:28:28Z</time>
      </trkpt>
      <trkpt lat="44.82897" lon="4.6617">
        <ele>284</ele>
        <time>2019-11-12T12:28:43Z</time>
      </trkpt>
      <trkpt lat="44.82908" lon="4.66161">
        <ele>285</ele>
        <time>2019-11-12T12:28:55Z</time>
      </trkpt>
      <trkpt lat="44.82902" lon="4.66155">
        <ele>281</ele>
        <time>2019-11-12T12:29:04Z</time>
      </trkpt>
      <trkpt lat="44.82886" lon="4.66156">
        <ele>276</ele>
        <time>2019-11-12T12:29:20Z</time>
      </trkpt>
      <trkpt lat="44.82884" lon="4.66156">
        <ele>276</ele>
        <time>2019-11-12T12:29:21Z</time>
      </trkpt>
      <trkpt lat="44.82882" lon="4.66156">
        <ele>275</ele>
        <time>2019-11-12T12:29:23Z</time>
      </trkpt>
      <trkpt lat="44.82865" lon="4.6616">
        <ele>271</ele>
        <time>2019-11-12T12:29:37Z</time>
      </trkpt>
      <trkpt lat="44.82844" lon="4.66165">
        <ele>266</ele>
        <time>2019-11-12T12:29:53Z</time>
      </trkpt>
      <trkpt lat="44.82827" lon="4.66177">
        <ele>265</ele>
        <time>2019-11-12T12:30:08Z</time>
      </trkpt>
      <trkpt lat="44.82812" lon="4.66187">
        <ele>264</ele>
        <time>2019-11-12T12:30:22Z</time>
      </trkpt>
      <trkpt lat="44.82795" lon="4.66191">
        <ele>260</ele>
        <time>2019-11-12T12:30:37Z</time>
      </trkpt>
      <trkpt lat="44.82781" lon="4.66196">
        <ele>258</ele>
        <time>2019-11-12T12:30:49Z</time>
      </trkpt>
      <trkpt lat="44.82765" lon="4.66205">
        <ele>256</ele>
        <time>2019-11-12T12:31:03Z</time>
      </trkpt>
      <trkpt lat="44.82757" lon="4.66206">
        <ele>254</ele>
        <time>2019-11-12T12:31:10Z</time>
      </trkpt>
      <trkpt lat="44.82737" lon="4.66202">
        <ele>247</ele>
        <time>2019-11-12T12:31:26Z</time>
      </trkpt>
      <trkpt lat="44.82734" lon="4.66197">
        <ele>245</ele>
        <time>2019-11-12T12:31:33Z</time>
      </trkpt>
      <trkpt lat="44.8272" lon="4.66205">
        <ele>243</ele>
        <time>2019-11-12T12:31:47Z</time>
      </trkpt>
      <trkpt lat="44.82707" lon="4.66219">
        <ele>242</ele>
        <time>2019-11-12T12:32:02Z</time>
      </trkpt>
      <trkpt lat="44.82701" lon="4.66236">
        <ele>240</ele>
        <time>2019-11-12T12:32:15Z</time>
      </trkpt>
      <trkpt lat="44.82704" lon="4.66258">
        <ele>240</ele>
        <time>2019-11-12T12:32:31Z</time>
      </trkpt>
      <trkpt lat="44.82709" lon="4.66283">
        <ele>242</ele>
        <time>2019-11-12T12:32:48Z</time>
      </trkpt>
      <trkpt lat="44.82706" lon="4.66303">
        <ele>240</ele>
        <time>2019-11-12T12:33:04Z</time>
      </trkpt>
      <trkpt lat="44.82703" lon="4.66317">
        <ele>236</ele>
        <time>2019-11-12T12:33:19Z</time>
      </trkpt>
      <trkpt lat="44.827" lon="4.66328">
        <ele>234</ele>
        <time>2019-11-12T12:33:32Z</time>
      </trkpt>
      <trkpt lat="44.82701" lon="4.66347">
        <ele>231</ele>
        <time>2019-11-12T12:33:46Z</time>
      </trkpt>
      <trkpt lat="44.82706" lon="4.66368">
        <ele>229</ele>
        <time>2019-11-12T12:34:01Z</time>
      </trkpt>
      <trkpt lat="44.82701" lon="4.66368">
        <ele>227</ele>
        <time>2019-11-12T12:34:13Z</time>
      </trkpt>
      <trkpt lat="44.827" lon="4.66368">
        <ele>227</ele>
        <time>2019-11-12T12:34:14Z</time>
      </trkpt>
      <trkpt lat="44.8269" lon="4.66366">
        <ele>224</ele>
        <time>2019-11-12T12:34:28Z</time>
      </trkpt>
      <trkpt lat="44.82683" lon="4.66364">
        <ele>222</ele>
        <time>2019-11-12T12:34:40Z</time>
      </trkpt>
      <trkpt lat="44.82682" lon="4.66363">
        <ele>221</ele>
        <time>2019-11-12T12:34:59Z</time>
      </trkpt>
      <trkpt lat="44.82678" lon="4.66357">
        <ele>221</ele>
        <time>2019-11-12T12:35:23Z</time>
      </trkpt>
      <trkpt lat="44.82674" lon="4.66353">
        <ele>220</ele>
        <time>2019-11-12T12:35:34Z</time>
      </trkpt>
      <trkpt lat="44.82665" lon="4.66346">
        <ele>217</ele>
        <time>2019-11-12T12:35:49Z</time>
      </trkpt>
      <trkpt lat="44.82659" lon="4.66344">
        <ele>215</ele>
        <time>2019-11-12T12:36:03Z</time>
      </trkpt>
      <trkpt lat="44.82661" lon="4.66352">
        <ele>215</ele>
        <time>2019-11-12T12:36:15Z</time>
      </trkpt>
      <trkpt lat="44.8266" lon="4.66364">
        <ele>213</ele>
        <time>2019-11-12T12:36:22Z</time>
      </trkpt>
      <trkpt lat="44.82657" lon="4.66372">
        <ele>211</ele>
        <time>2019-11-12T12:36:26Z</time>
      </trkpt>
      <trkpt lat="44.82661" lon="4.664">
        <ele>209</ele>
        <time>2019-11-12T12:36:44Z</time>
      </trkpt>
      <trkpt lat="44.82669" lon="4.6642">
        <ele>209</ele>
        <time>2019-11-12T12:36:57Z</time>
      </trkpt>
      <trkpt lat="44.82679" lon="4.66449">
        <ele>207</ele>
        <time>2019-11-12T12:37:16Z</time>
      </trkpt>
      <trkpt lat="44.82683" lon="4.66478">
        <ele>205</ele>
        <time>2019-11-12T12:37:34Z</time>
      </trkpt>
      <trkpt lat="44.82692" lon="4.66503">
        <ele>202</ele>
        <time>2019-11-12T12:37:53Z</time>
      </trkpt>
      <trkpt lat="44.82699" lon="4.66522">
        <ele>202</ele>
        <time>2019-11-12T12:38:10Z</time>
      </trkpt>
      <trkpt lat="44.82702" lon="4.6654">
        <ele>200</ele>
        <time>2019-11-12T12:38:26Z</time>
      </trkpt>
      <trkpt lat="44.82697" lon="4.66549">
        <ele>197</ele>
        <time>2019-11-12T12:38:38Z</time>
      </trkpt>
      <trkpt lat="44.82688" lon="4.66572">
        <ele>193</ele>
        <time>2019-11-12T12:38:55Z</time>
      </trkpt>
      <trkpt lat="44.8268" lon="4.66587">
        <ele>190</ele>
        <time>2019-11-12T12:39:08Z</time>
      </trkpt>
      <trkpt lat="44.82675" lon="4.66609">
        <ele>187</ele>
        <time>2019-11-12T12:39:24Z</time>
      </trkpt>
      <trkpt lat="44.82681" lon="4.66636">
        <ele>184</ele>
        <time>2019-11-12T12:39:43Z</time>
      </trkpt>
      <trkpt lat="44.8268" lon="4.66657">
        <ele>181</ele>
        <time>2019-11-12T12:40:01Z</time>
      </trkpt>
      <trkpt lat="44.82673" lon="4.66665">
        <ele>179</ele>
        <time>2019-11-12T12:40:14Z</time>
      </trkpt>
      <trkpt lat="44.82667" lon="4.66666">
        <ele>179</ele>
        <time>2019-11-12T12:40:22Z</time>
      </trkpt>
      <trkpt lat="44.82665" lon="4.66667">
        <ele>179</ele>
        <time>2019-11-12T12:40:24Z</time>
      </trkpt>
      <trkpt lat="44.8266" lon="4.66667">
        <ele>179</ele>
        <time>2019-11-12T12:40:28Z</time>
      </trkpt>
      <trkpt lat="44.82648" lon="4.66668">
        <ele>179</ele>
        <time>2019-11-12T12:40:38Z</time>
      </trkpt>
      <trkpt lat="44.82644" lon="4.66673">
        <ele>178</ele>
        <time>2019-11-12T12:40:43Z</time>
      </trkpt>
      <trkpt lat="44.82641" lon="4.66697">
        <ele>176</ele>
        <time>2019-11-12T12:40:57Z</time>
      </trkpt>
      <trkpt lat="44.82633" lon="4.6673">
        <ele>172</ele>
        <time>2019-11-12T12:41:16Z</time>
      </trkpt>
      <trkpt lat="44.82634" lon="4.66752">
        <ele>169</ele>
        <time>2019-11-12T12:41:31Z</time>
      </trkpt>
      <trkpt lat="44.8263" lon="4.66779">
        <ele>166</ele>
        <time>2019-11-12T12:41:47Z</time>
      </trkpt>
      <trkpt lat="44.82626" lon="4.66799">
        <ele>163</ele>
        <time>2019-11-12T12:42:03Z</time>
      </trkpt>
      <trkpt lat="44.8263" lon="4.66819">
        <ele>162</ele>
        <time>2019-11-12T12:42:18Z</time>
      </trkpt>
      <trkpt lat="44.82639" lon="4.66835">
        <ele>162</ele>
        <time>2019-11-12T12:42:32Z</time>
      </trkpt>
      <trkpt lat="44.82653" lon="4.66858">
        <ele>162</ele>
        <time>2019-11-12T12:42:51Z</time>
      </trkpt>
      <trkpt lat="44.82659" lon="4.66874">
        <ele>161</ele>
        <time>2019-11-12T12:43:04Z</time>
      </trkpt>
      <trkpt lat="44.82673" lon="4.66898">
        <ele>160</ele>
        <time>2019-11-12T12:43:22Z</time>
      </trkpt>
      <trkpt lat="44.82684" lon="4.66904">
        <ele>160</ele>
        <time>2019-11-12T12:43:38Z</time>
      </trkpt>
      <trkpt lat="44.82694" lon="4.66906">
        <ele>160</ele>
        <time>2019-11-12T12:43:48Z</time>
      </trkpt>
      <trkpt lat="44.82712" lon="4.66904">
        <ele>159</ele>
        <time>2019-11-12T12:44:07Z</time>
      </trkpt>
      <trkpt lat="44.82724" lon="4.66901">
        <ele>159</ele>
        <time>2019-11-12T12:44:20Z</time>
      </trkpt>
      <trkpt lat="44.82732" lon="4.669">
        <ele>158</ele>
        <time>2019-11-12T12:44:32Z</time>
      </trkpt>
      <trkpt lat="44.82738" lon="4.66893">
        <ele>158</ele>
        <time>2019-11-12T12:44:45Z</time>
      </trkpt>
      <trkpt lat="44.8275" lon="4.66901">
        <ele>158</ele>
        <time>2019-11-12T12:45:00Z</time>
      </trkpt>
      <trkpt lat="44.82754" lon="4.66916">
        <ele>159</ele>
        <time>2019-11-12T12:45:17Z</time>
      </trkpt>
      <trkpt lat="44.82756" lon="4.66927">
        <ele>159</ele>
        <time>2019-11-12T12:45:37Z</time>
      </trkpt>
      <trkpt lat="44.82753" lon="4.66942">
        <ele>158</ele>
        <time>2019-11-12T12:45:55Z</time>
      </trkpt>
      <trkpt lat="44.82752" lon="4.6695">
        <ele>157</ele>
        <time>2019-11-12T12:45:59Z</time>
      </trkpt>
      <trkpt lat="44.82752" lon="4.66972">
        <ele>157</ele>
        <time>2019-11-12T12:46:15Z</time>
      </trkpt>
      <trkpt lat="44.82752" lon="4.66993">
        <ele>157</ele>
        <time>2019-11-12T12:46:32Z</time>
      </trkpt>
      <trkpt lat="44.82751" lon="4.67016">
        <ele>157</ele>
        <time>2019-11-12T12:46:48Z</time>
      </trkpt>
      <trkpt lat="44.8275" lon="4.67045">
        <ele>158</ele>
        <time>2019-11-12T12:47:03Z</time>
      </trkpt>
      <trkpt lat="44.82756" lon="4.67074">
        <ele>158</ele>
        <time>2019-11-12T12:47:22Z</time>
      </trkpt>
      <trkpt lat="44.82764" lon="4.67106">
        <ele>157</ele>
        <time>2019-11-12T12:47:41Z</time>
      </trkpt>
      <trkpt lat="44.82772" lon="4.67138">
        <ele>157</ele>
        <time>2019-11-12T12:48:00Z</time>
      </trkpt>
      <trkpt lat="44.82779" lon="4.67166">
        <ele>155</ele>
        <time>2019-11-12T12:48:18Z</time>
      </trkpt>
      <trkpt lat="44.82787" lon="4.67197">
        <ele>155</ele>
        <time>2019-11-12T12:48:37Z</time>
      </trkpt>
      <trkpt lat="44.82796" lon="4.67227">
        <ele>153</ele>
        <time>2019-11-12T12:48:55Z</time>
      </trkpt>
      <trkpt lat="44.82808" lon="4.67253">
        <ele>153</ele>
        <time>2019-11-12T12:49:13Z</time>
      </trkpt>
      <trkpt lat="44.82822" lon="4.67281">
        <ele>153</ele>
        <time>2019-11-12T12:49:31Z</time>
      </trkpt>
      <trkpt lat="44.82831" lon="4.67305">
        <ele>153</ele>
        <time>2019-11-12T12:49:48Z</time>
      </trkpt>
      <trkpt lat="44.82842" lon="4.67332">
        <ele>152</ele>
        <time>2019-11-12T12:50:07Z</time>
      </trkpt>
      <trkpt lat="44.82852" lon="4.67357">
        <ele>152</ele>
        <time>2019-11-12T12:50:24Z</time>
      </trkpt>
      <trkpt lat="44.82855" lon="4.67365">
        <ele>152</ele>
        <time>2019-11-12T12:50:30Z</time>
      </trkpt>
      <trkpt lat="44.8286" lon="4.67371">
        <ele>153</ele>
        <time>2019-11-12T12:50:36Z</time>
      </trkpt>
      <trkpt lat="44.82868" lon="4.67395">
        <ele>152</ele>
        <time>2019-11-12T12:50:54Z</time>
      </trkpt>
      <trkpt lat="44.82874" lon="4.67411">
        <ele>152</ele>
        <time>2019-11-12T12:51:07Z</time>
      </trkpt>
      <trkpt lat="44.82879" lon="4.67432">
        <ele>152</ele>
        <time>2019-11-12T12:51:21Z</time>
      </trkpt>
      <trkpt lat="44.82888" lon="4.6746">
        <ele>152</ele>
        <time>2019-11-12T12:51:40Z</time>
      </trkpt>
      <trkpt lat="44.8289" lon="4.67465">
        <ele>152</ele>
        <time>2019-11-12T12:51:43Z</time>
      </trkpt>
      <trkpt lat="44.8289" lon="4.67469">
        <ele>152</ele>
        <time>2019-11-12T12:51:45Z</time>
      </trkpt>
      <trkpt lat="44.82896" lon="4.67483">
        <ele>152</ele>
        <time>2019-11-12T12:51:54Z</time>
      </trkpt>
      <trkpt lat="44.82901" lon="4.67502">
        <ele>152</ele>
        <time>2019-11-12T12:52:08Z</time>
      </trkpt>
      <trkpt lat="44.82918" lon="4.67525">
        <ele>153</ele>
        <time>2019-11-12T12:52:24Z</time>
      </trkpt>
      <trkpt lat="44.82926" lon="4.67551">
        <ele>153</ele>
        <time>2019-11-12T12:52:42Z</time>
      </trkpt>
      <trkpt lat="44.82925" lon="4.67582">
        <ele>152</ele>
        <time>2019-11-12T12:53:00Z</time>
      </trkpt>
      <trkpt lat="44.82936" lon="4.67602">
        <ele>152</ele>
        <time>2019-11-12T12:53:16Z</time>
      </trkpt>
      <trkpt lat="44.82943" lon="4.6763">
        <ele>151</ele>
        <time>2019-11-12T12:53:34Z</time>
      </trkpt>
      <trkpt lat="44.82947" lon="4.67641">
        <ele>150</ele>
        <time>2019-11-12T12:53:43Z</time>
      </trkpt>
      <trkpt lat="44.82948" lon="4.67671">
        <ele>149</ele>
        <time>2019-11-12T12:53:58Z</time>
      </trkpt>
      <trkpt lat="44.82961" lon="4.67688">
        <ele>149</ele>
        <time>2019-11-12T12:54:11Z</time>
      </trkpt>
      <trkpt lat="44.82963" lon="4.6769">
        <ele>149</ele>
        <time>2019-11-12T12:54:13Z</time>
      </trkpt>
      <trkpt lat="44.82965" lon="4.67703">
        <ele>149</ele>
        <time>2019-11-12T12:54:20Z</time>
      </trkpt>
      <trkpt lat="44.82965" lon="4.67733">
        <ele>148</ele>
        <time>2019-11-12T12:54:37Z</time>
      </trkpt>
      <trkpt lat="44.82966" lon="4.67755">
        <ele>148</ele>
        <time>2019-11-12T12:54:50Z</time>
      </trkpt>
      <trkpt lat="44.82972" lon="4.67772">
        <ele>148</ele>
        <time>2019-11-12T12:55:03Z</time>
      </trkpt>
      <trkpt lat="44.82979" lon="4.67788">
        <ele>149</ele>
        <time>2019-11-12T12:55:14Z</time>
      </trkpt>
      <trkpt lat="44.82985" lon="4.67808">
        <ele>149</ele>
        <time>2019-11-12T12:55:29Z</time>
      </trkpt>
      <trkpt lat="44.82987" lon="4.67814">
        <ele>149</ele>
        <time>2019-11-12T12:55:34Z</time>
      </trkpt>
      <trkpt lat="44.82997" lon="4.67833">
        <ele>150</ele>
        <time>2019-11-12T12:55:51Z</time>
      </trkpt>
      <trkpt lat="44.83009" lon="4.67842">
        <ele>152</ele>
        <time>2019-11-12T12:56:05Z</time>
      </trkpt>
      <trkpt lat="44.83026" lon="4.67855">
        <ele>156</ele>
        <time>2019-11-12T12:56:25Z</time>
      </trkpt>
      <trkpt lat="44.83036" lon="4.67854">
        <ele>158</ele>
        <time>2019-11-12T12:56:39Z</time>
      </trkpt>
      <trkpt lat="44.8304" lon="4.67847">
        <ele>158</ele>
        <time>2019-11-12T12:56:57Z</time>
      </trkpt>
    </trkseg>
  </trk>
</gpx>